<?xml version="1.0" encoding="UTF-8" standalone="no" ?>
<gpx xmlns="http://www.topografix.com/GPX/1/1" xmlns:xsi="http://www.w3.org/2001/XMLSchema-instance" xsi:schemaLocation="http://www.topografix.com/GPX/1/1 http://www.topografix.com/GPX/1/1/gpx.xsd" version="1.1" creator="VisuGPX - https://www.visugpx.com">
  <metadata>
    <name>Revel-4 seigneurs-Uriage-Revel</name>
    <desc><![CDATA[File with points/tracks from Locus Map/3.35.2]]></desc>
  </metadata>
  <trk>
    <name><![CDATA[2019-02-18 14:05:11]]></name>
    <desc><![CDATA[Murier]]></desc>
    <trkseg>
      <trkpt lat="45.18438" lon="5.87182">
        <ele>676.85</ele>
        <time>2019-02-18T13:05:12.000Z</time>
      </trkpt>
      <trkpt lat="45.18437" lon="5.87175">
        <ele>676.75</ele>
        <time>2019-02-18T13:05:22.000Z</time>
      </trkpt>
      <trkpt lat="45.18408" lon="5.87129">
        <ele>666.36</ele>
        <time>2019-02-18T13:05:32.000Z</time>
      </trkpt>
      <trkpt lat="45.18489" lon="5.87092">
        <ele>666.47</ele>
        <time>2019-02-18T13:05:42.000Z</time>
      </trkpt>
      <trkpt lat="45.18571" lon="5.87051">
        <ele>664.89</ele>
        <time>2019-02-18T13:05:52.000Z</time>
      </trkpt>
      <trkpt lat="45.18598" lon="5.86933">
        <ele>654.26</ele>
        <time>2019-02-18T13:06:02.000Z</time>
      </trkpt>
      <trkpt lat="45.18599" lon="5.86858">
        <ele>648.35</ele>
        <time>2019-02-18T13:06:12.000Z</time>
      </trkpt>
      <trkpt lat="45.18654" lon="5.86927">
        <ele>647.49</ele>
        <time>2019-02-18T13:06:22.000Z</time>
      </trkpt>
      <trkpt lat="45.18698" lon="5.8678">
        <ele>640.86</ele>
        <time>2019-02-18T13:06:32.000Z</time>
      </trkpt>
      <trkpt lat="45.18783" lon="5.86659">
        <ele>627.74</ele>
        <time>2019-02-18T13:06:42.000Z</time>
      </trkpt>
      <trkpt lat="45.18789" lon="5.86493">
        <ele>616.62</ele>
        <time>2019-02-18T13:06:52.000Z</time>
      </trkpt>
      <trkpt lat="45.18858" lon="5.86428">
        <ele>607.71</ele>
        <time>2019-02-18T13:07:02.000Z</time>
      </trkpt>
      <trkpt lat="45.18915" lon="5.8629">
        <ele>594.74</ele>
        <time>2019-02-18T13:07:12.000Z</time>
      </trkpt>
      <trkpt lat="45.18943" lon="5.86115">
        <ele>581.32</ele>
        <time>2019-02-18T13:07:22.000Z</time>
      </trkpt>
      <trkpt lat="45.18975" lon="5.85951">
        <ele>570.18</ele>
        <time>2019-02-18T13:07:32.000Z</time>
      </trkpt>
      <trkpt lat="45.18964" lon="5.85781">
        <ele>559.48</ele>
        <time>2019-02-18T13:07:42.000Z</time>
      </trkpt>
      <trkpt lat="45.18959" lon="5.85615">
        <ele>547.96</ele>
        <time>2019-02-18T13:07:52.000Z</time>
      </trkpt>
      <trkpt lat="45.19045" lon="5.85496">
        <ele>537.39</ele>
        <time>2019-02-18T13:08:02.000Z</time>
      </trkpt>
      <trkpt lat="45.19149" lon="5.85422">
        <ele>521.81</ele>
        <time>2019-02-18T13:08:12.000Z</time>
      </trkpt>
      <trkpt lat="45.19261" lon="5.8535">
        <ele>521.95</ele>
        <time>2019-02-18T13:08:22.000Z</time>
      </trkpt>
      <trkpt lat="45.19357" lon="5.85364">
        <ele>509.04</ele>
        <time>2019-02-18T13:08:32.000Z</time>
      </trkpt>
      <trkpt lat="45.19384" lon="5.85348">
        <ele>505.8</ele>
        <time>2019-02-18T13:08:42.000Z</time>
      </trkpt>
      <trkpt lat="45.19388" lon="5.85229">
        <ele>497.28</ele>
        <time>2019-02-18T13:08:52.000Z</time>
      </trkpt>
      <trkpt lat="45.19471" lon="5.85176">
        <ele>491.89</ele>
        <time>2019-02-18T13:09:02.000Z</time>
      </trkpt>
      <trkpt lat="45.195" lon="5.85036">
        <ele>484.96</ele>
        <time>2019-02-18T13:09:12.000Z</time>
      </trkpt>
      <trkpt lat="45.19615" lon="5.84957">
        <ele>473.19</ele>
        <time>2019-02-18T13:09:22.000Z</time>
      </trkpt>
      <trkpt lat="45.19718" lon="5.84839">
        <ele>465.85</ele>
        <time>2019-02-18T13:09:32.000Z</time>
      </trkpt>
      <trkpt lat="45.19836" lon="5.84768">
        <ele>457.27</ele>
        <time>2019-02-18T13:09:42.000Z</time>
      </trkpt>
      <trkpt lat="45.1986" lon="5.84708">
        <ele>445.95</ele>
        <time>2019-02-18T13:09:52.000Z</time>
      </trkpt>
      <trkpt lat="45.19933" lon="5.84583">
        <ele>428.6</ele>
        <time>2019-02-18T13:10:02.000Z</time>
      </trkpt>
      <trkpt lat="45.20016" lon="5.84482">
        <ele>416.25</ele>
        <time>2019-02-18T13:10:12.000Z</time>
      </trkpt>
      <trkpt lat="45.20124" lon="5.84505">
        <ele>402.41</ele>
        <time>2019-02-18T13:10:22.000Z</time>
      </trkpt>
      <trkpt lat="45.20182" lon="5.84658">
        <ele>385.99</ele>
        <time>2019-02-18T13:10:32.000Z</time>
      </trkpt>
      <trkpt lat="45.20259" lon="5.8478">
        <ele>369.48</ele>
        <time>2019-02-18T13:10:42.000Z</time>
      </trkpt>
      <trkpt lat="45.20324" lon="5.84932">
        <ele>363.97</ele>
        <time>2019-02-18T13:10:52.000Z</time>
      </trkpt>
      <trkpt lat="45.20393" lon="5.85073">
        <ele>358.18</ele>
        <time>2019-02-18T13:11:02.000Z</time>
      </trkpt>
      <trkpt lat="45.2042" lon="5.85101">
        <ele>349.3</ele>
        <time>2019-02-18T13:11:12.000Z</time>
      </trkpt>
      <trkpt lat="45.20405" lon="5.85049">
        <ele>349.17</ele>
        <time>2019-02-18T13:11:22.000Z</time>
      </trkpt>
      <trkpt lat="45.20379" lon="5.84966">
        <ele>344.15</ele>
        <time>2019-02-18T13:11:32.000Z</time>
      </trkpt>
      <trkpt lat="45.20339" lon="5.84833">
        <ele>335.71</ele>
        <time>2019-02-18T13:11:42.000Z</time>
      </trkpt>
      <trkpt lat="45.20307" lon="5.84669">
        <ele>327.33</ele>
        <time>2019-02-18T13:11:52.000Z</time>
      </trkpt>
      <trkpt lat="45.20258" lon="5.84521">
        <ele>317.76</ele>
        <time>2019-02-18T13:12:02.000Z</time>
      </trkpt>
      <trkpt lat="45.20223" lon="5.84352">
        <ele>304.62</ele>
        <time>2019-02-18T13:12:12.000Z</time>
      </trkpt>
      <trkpt lat="45.20159" lon="5.84221">
        <ele>282.76</ele>
        <time>2019-02-18T13:12:22.000Z</time>
      </trkpt>
      <trkpt lat="45.20047" lon="5.84249">
        <ele>269.39</ele>
        <time>2019-02-18T13:12:32.000Z</time>
      </trkpt>
      <trkpt lat="45.20004" lon="5.84217">
        <ele>260.96</ele>
        <time>2019-02-18T13:12:42.000Z</time>
      </trkpt>
      <trkpt lat="45.20075" lon="5.84166">
        <ele>261</ele>
        <time>2019-02-18T13:12:52.000Z</time>
      </trkpt>
      <trkpt lat="45.2012" lon="5.84071">
        <ele>253.73</ele>
        <time>2019-02-18T13:13:02.000Z</time>
      </trkpt>
      <trkpt lat="45.2015" lon="5.84002">
        <ele>254.69</ele>
        <time>2019-02-18T13:13:12.000Z</time>
      </trkpt>
      <trkpt lat="45.20164" lon="5.83969">
        <ele>257.9</ele>
        <time>2019-02-18T13:13:22.000Z</time>
      </trkpt>
      <trkpt lat="45.20158" lon="5.83884">
        <ele>261.06</ele>
        <time>2019-02-18T13:13:32.000Z</time>
      </trkpt>
      <trkpt lat="45.20142" lon="5.83858">
        <ele>252.64</ele>
        <time>2019-02-18T13:13:42.000Z</time>
      </trkpt>
      <trkpt lat="45.20096" lon="5.83855">
        <ele>250.92</ele>
        <time>2019-02-18T13:13:52.000Z</time>
      </trkpt>
      <trkpt lat="45.20048" lon="5.838">
        <ele>249.9</ele>
        <time>2019-02-18T13:14:02.000Z</time>
      </trkpt>
      <trkpt lat="45.20005" lon="5.83755">
        <ele>247.06</ele>
        <time>2019-02-18T13:14:12.000Z</time>
      </trkpt>
      <trkpt lat="45.19966" lon="5.83701">
        <ele>246.96</ele>
        <time>2019-02-18T13:14:22.000Z</time>
      </trkpt>
      <trkpt lat="45.19919" lon="5.83633">
        <ele>242.63</ele>
        <time>2019-02-18T13:14:32.000Z</time>
      </trkpt>
      <trkpt lat="45.19884" lon="5.8356">
        <ele>237.16</ele>
        <time>2019-02-18T13:14:42.000Z</time>
      </trkpt>
      <trkpt lat="45.19855" lon="5.83479">
        <ele>233.9</ele>
        <time>2019-02-18T13:14:52.000Z</time>
      </trkpt>
      <trkpt lat="45.19824" lon="5.83384">
        <ele>233.28</ele>
        <time>2019-02-18T13:15:02.000Z</time>
      </trkpt>
      <trkpt lat="45.19795" lon="5.83302">
        <ele>228.29</ele>
        <time>2019-02-18T13:15:12.000Z</time>
      </trkpt>
      <trkpt lat="45.19762" lon="5.83216">
        <ele>223.76</ele>
        <time>2019-02-18T13:15:22.000Z</time>
      </trkpt>
      <trkpt lat="45.19729" lon="5.83129">
        <ele>224.97</ele>
        <time>2019-02-18T13:15:32.000Z</time>
      </trkpt>
      <trkpt lat="45.19699" lon="5.83041">
        <ele>221.95</ele>
        <time>2019-02-18T13:15:42.000Z</time>
      </trkpt>
      <trkpt lat="45.19672" lon="5.82953">
        <ele>219.85</ele>
        <time>2019-02-18T13:15:52.000Z</time>
      </trkpt>
      <trkpt lat="45.19661" lon="5.82904">
        <ele>220.23</ele>
        <time>2019-02-18T13:16:02.000Z</time>
      </trkpt>
      <trkpt lat="45.19635" lon="5.82847">
        <ele>218.85</ele>
        <time>2019-02-18T13:16:12.000Z</time>
      </trkpt>
      <trkpt lat="45.1961" lon="5.8278">
        <ele>218.82</ele>
        <time>2019-02-18T13:16:22.000Z</time>
      </trkpt>
      <trkpt lat="45.19593" lon="5.82718">
        <ele>212.45</ele>
        <time>2019-02-18T13:16:32.000Z</time>
      </trkpt>
      <trkpt lat="45.19565" lon="5.82657">
        <ele>221.43</ele>
        <time>2019-02-18T13:16:42.000Z</time>
      </trkpt>
      <trkpt lat="45.19536" lon="5.82586">
        <ele>218</ele>
        <time>2019-02-18T13:16:52.000Z</time>
      </trkpt>
      <trkpt lat="45.19514" lon="5.82524">
        <ele>211.82</ele>
        <time>2019-02-18T13:17:02.000Z</time>
      </trkpt>
      <trkpt lat="45.19492" lon="5.82458">
        <ele>212.56</ele>
        <time>2019-02-18T13:17:12.000Z</time>
      </trkpt>
      <trkpt lat="45.19466" lon="5.82392">
        <ele>213.12</ele>
        <time>2019-02-18T13:17:22.000Z</time>
      </trkpt>
      <trkpt lat="45.1944" lon="5.82319">
        <ele>213.79</ele>
        <time>2019-02-18T13:17:32.000Z</time>
      </trkpt>
      <trkpt lat="45.19413" lon="5.82245">
        <ele>216.04</ele>
        <time>2019-02-18T13:17:42.000Z</time>
      </trkpt>
      <trkpt lat="45.19389" lon="5.82174">
        <ele>216.83</ele>
        <time>2019-02-18T13:17:52.000Z</time>
      </trkpt>
      <trkpt lat="45.19363" lon="5.82102">
        <ele>215.9</ele>
        <time>2019-02-18T13:18:02.000Z</time>
      </trkpt>
      <trkpt lat="45.19337" lon="5.82024">
        <ele>214.7</ele>
        <time>2019-02-18T13:18:12.000Z</time>
      </trkpt>
      <trkpt lat="45.19314" lon="5.81952">
        <ele>215.33</ele>
        <time>2019-02-18T13:18:22.000Z</time>
      </trkpt>
      <trkpt lat="45.19293" lon="5.81895">
        <ele>221.96</ele>
        <time>2019-02-18T13:18:32.000Z</time>
      </trkpt>
      <trkpt lat="45.19275" lon="5.81847">
        <ele>221.29</ele>
        <time>2019-02-18T13:18:42.000Z</time>
      </trkpt>
      <trkpt lat="45.19258" lon="5.81804">
        <ele>226.83</ele>
        <time>2019-02-18T13:18:52.000Z</time>
      </trkpt>
      <trkpt lat="45.19252" lon="5.81801">
        <ele>227.33</ele>
        <time>2019-02-18T13:19:02.000Z</time>
      </trkpt>
      <trkpt lat="45.19253" lon="5.81802">
        <ele>226.07</ele>
        <time>2019-02-18T13:19:15.000Z</time>
      </trkpt>
      <trkpt lat="45.19254" lon="5.81802">
        <ele>224.92</ele>
        <time>2019-02-18T13:19:56.000Z</time>
      </trkpt>
      <trkpt lat="45.19252" lon="5.81803">
        <ele>225.04</ele>
        <time>2019-02-18T13:20:06.000Z</time>
      </trkpt>
      <trkpt lat="45.1925" lon="5.81803">
        <ele>224.06</ele>
        <time>2019-02-18T13:20:19.000Z</time>
      </trkpt>
      <trkpt lat="45.19243" lon="5.81772">
        <ele>228.49</ele>
        <time>2019-02-18T13:20:29.000Z</time>
      </trkpt>
      <trkpt lat="45.19227" lon="5.81727">
        <ele>233.23</ele>
        <time>2019-02-18T13:20:39.000Z</time>
      </trkpt>
      <trkpt lat="45.192" lon="5.81674">
        <ele>231.33</ele>
        <time>2019-02-18T13:20:49.000Z</time>
      </trkpt>
      <trkpt lat="45.19169" lon="5.81596">
        <ele>227.03</ele>
        <time>2019-02-18T13:20:59.000Z</time>
      </trkpt>
      <trkpt lat="45.19132" lon="5.81501">
        <ele>223.92</ele>
        <time>2019-02-18T13:21:09.000Z</time>
      </trkpt>
      <trkpt lat="45.19092" lon="5.81409">
        <ele>218.24</ele>
        <time>2019-02-18T13:21:19.000Z</time>
      </trkpt>
      <trkpt lat="45.19059" lon="5.81347">
        <ele>216.78</ele>
        <time>2019-02-18T13:21:29.000Z</time>
      </trkpt>
      <trkpt lat="45.19041" lon="5.81297">
        <ele>217.88</ele>
        <time>2019-02-18T13:21:39.000Z</time>
      </trkpt>
      <trkpt lat="45.19015" lon="5.81239">
        <ele>219.96</ele>
        <time>2019-02-18T13:21:49.000Z</time>
      </trkpt>
      <trkpt lat="45.18988" lon="5.81176">
        <ele>216.97</ele>
        <time>2019-02-18T13:21:59.000Z</time>
      </trkpt>
      <trkpt lat="45.18956" lon="5.81109">
        <ele>221.21</ele>
        <time>2019-02-18T13:22:09.000Z</time>
      </trkpt>
      <trkpt lat="45.18931" lon="5.81048">
        <ele>220.82</ele>
        <time>2019-02-18T13:22:19.000Z</time>
      </trkpt>
      <trkpt lat="45.18903" lon="5.8099">
        <ele>217.97</ele>
        <time>2019-02-18T13:22:29.000Z</time>
      </trkpt>
      <trkpt lat="45.18875" lon="5.80931">
        <ele>213.81</ele>
        <time>2019-02-18T13:22:39.000Z</time>
      </trkpt>
      <trkpt lat="45.18841" lon="5.80859">
        <ele>218.89</ele>
        <time>2019-02-18T13:22:49.000Z</time>
      </trkpt>
      <trkpt lat="45.18814" lon="5.80799">
        <ele>226.34</ele>
        <time>2019-02-18T13:22:59.000Z</time>
      </trkpt>
      <trkpt lat="45.18782" lon="5.8074">
        <ele>232.4</ele>
        <time>2019-02-18T13:23:09.000Z</time>
      </trkpt>
      <trkpt lat="45.18811" lon="5.80722">
        <ele>226.12</ele>
        <time>2019-02-18T13:23:19.000Z</time>
      </trkpt>
      <trkpt lat="45.18856" lon="5.80699">
        <ele>222.38</ele>
        <time>2019-02-18T13:23:29.000Z</time>
      </trkpt>
      <trkpt lat="45.18837" lon="5.80668">
        <ele>221.14</ele>
        <time>2019-02-18T13:23:39.000Z</time>
      </trkpt>
      <trkpt lat="45.18799" lon="5.8065">
        <ele>218.16</ele>
        <time>2019-02-18T13:23:49.000Z</time>
      </trkpt>
      <trkpt lat="45.18756" lon="5.80621">
        <ele>221.3</ele>
        <time>2019-02-18T13:23:59.000Z</time>
      </trkpt>
      <trkpt lat="45.18718" lon="5.80574">
        <ele>221.27</ele>
        <time>2019-02-18T13:24:09.000Z</time>
      </trkpt>
      <trkpt lat="45.18689" lon="5.80507">
        <ele>218.86</ele>
        <time>2019-02-18T13:24:19.000Z</time>
      </trkpt>
      <trkpt lat="45.18674" lon="5.80433">
        <ele>217.66</ele>
        <time>2019-02-18T13:24:29.000Z</time>
      </trkpt>
      <trkpt lat="45.1866" lon="5.80352">
        <ele>216.44</ele>
        <time>2019-02-18T13:24:39.000Z</time>
      </trkpt>
      <trkpt lat="45.18662" lon="5.80269">
        <ele>218.19</ele>
        <time>2019-02-18T13:24:49.000Z</time>
      </trkpt>
      <trkpt lat="45.18682" lon="5.80191">
        <ele>218.17</ele>
        <time>2019-02-18T13:24:59.000Z</time>
      </trkpt>
      <trkpt lat="45.18703" lon="5.80117">
        <ele>220.22</ele>
        <time>2019-02-18T13:25:09.000Z</time>
      </trkpt>
      <trkpt lat="45.18695" lon="5.8005">
        <ele>220.72</ele>
        <time>2019-02-18T13:25:19.000Z</time>
      </trkpt>
      <trkpt lat="45.18673" lon="5.79993">
        <ele>218.82</ele>
        <time>2019-02-18T13:25:29.000Z</time>
      </trkpt>
      <trkpt lat="45.18654" lon="5.79945">
        <ele>221.39</ele>
        <time>2019-02-18T13:25:39.000Z</time>
      </trkpt>
      <trkpt lat="45.18612" lon="5.7992">
        <ele>218.11</ele>
        <time>2019-02-18T13:25:49.000Z</time>
      </trkpt>
      <trkpt lat="45.1857" lon="5.799">
        <ele>223.37</ele>
        <time>2019-02-18T13:25:59.000Z</time>
      </trkpt>
      <trkpt lat="45.18546" lon="5.7987">
        <ele>216.52</ele>
        <time>2019-02-18T13:26:09.000Z</time>
      </trkpt>
      <trkpt lat="45.18551" lon="5.79803">
        <ele>215.08</ele>
        <time>2019-02-18T13:26:19.000Z</time>
      </trkpt>
      <trkpt lat="45.18555" lon="5.79733">
        <ele>217.72</ele>
        <time>2019-02-18T13:26:29.000Z</time>
      </trkpt>
      <trkpt lat="45.18562" lon="5.79659">
        <ele>215.77</ele>
        <time>2019-02-18T13:26:39.000Z</time>
      </trkpt>
      <trkpt lat="45.18564" lon="5.79582">
        <ele>220.32</ele>
        <time>2019-02-18T13:26:49.000Z</time>
      </trkpt>
      <trkpt lat="45.18543" lon="5.79518">
        <ele>219.93</ele>
        <time>2019-02-18T13:26:59.000Z</time>
      </trkpt>
      <trkpt lat="45.18531" lon="5.79464">
        <ele>219.52</ele>
        <time>2019-02-18T13:27:09.000Z</time>
      </trkpt>
      <trkpt lat="45.18526" lon="5.79403">
        <ele>220.56</ele>
        <time>2019-02-18T13:27:19.000Z</time>
      </trkpt>
      <trkpt lat="45.18528" lon="5.7934">
        <ele>226.36</ele>
        <time>2019-02-18T13:27:29.000Z</time>
      </trkpt>
      <trkpt lat="45.1854" lon="5.79278">
        <ele>225.36</ele>
        <time>2019-02-18T13:27:39.000Z</time>
      </trkpt>
      <trkpt lat="45.18559" lon="5.79228">
        <ele>224.1</ele>
        <time>2019-02-18T13:27:49.000Z</time>
      </trkpt>
      <trkpt lat="45.18542" lon="5.79173">
        <ele>230.28</ele>
        <time>2019-02-18T13:27:59.000Z</time>
      </trkpt>
      <trkpt lat="45.18515" lon="5.79122">
        <ele>230.41</ele>
        <time>2019-02-18T13:28:09.000Z</time>
      </trkpt>
      <trkpt lat="45.18504" lon="5.79063">
        <ele>226.93</ele>
        <time>2019-02-18T13:28:19.000Z</time>
      </trkpt>
      <trkpt lat="45.18488" lon="5.79049">
        <ele>229.63</ele>
        <time>2019-02-18T13:28:29.000Z</time>
      </trkpt>
      <trkpt lat="45.18446" lon="5.79058">
        <ele>231.04</ele>
        <time>2019-02-18T13:28:39.000Z</time>
      </trkpt>
      <trkpt lat="45.18405" lon="5.7907">
        <ele>229.16</ele>
        <time>2019-02-18T13:28:49.000Z</time>
      </trkpt>
      <trkpt lat="45.18368" lon="5.79095">
        <ele>233.32</ele>
        <time>2019-02-18T13:28:59.000Z</time>
      </trkpt>
      <trkpt lat="45.18347" lon="5.79128">
        <ele>228.91</ele>
        <time>2019-02-18T13:29:09.000Z</time>
      </trkpt>
      <trkpt lat="45.18318" lon="5.79162">
        <ele>227.86</ele>
        <time>2019-02-18T13:29:19.000Z</time>
      </trkpt>
      <trkpt lat="45.1828" lon="5.79184">
        <ele>226.98</ele>
        <time>2019-02-18T13:29:29.000Z</time>
      </trkpt>
      <trkpt lat="45.18245" lon="5.79207">
        <ele>228.35</ele>
        <time>2019-02-18T13:29:39.000Z</time>
      </trkpt>
      <trkpt lat="45.18212" lon="5.79213">
        <ele>230.62</ele>
        <time>2019-02-18T13:29:49.000Z</time>
      </trkpt>
      <trkpt lat="45.18192" lon="5.79208">
        <ele>229.9</ele>
        <time>2019-02-18T13:29:59.000Z</time>
      </trkpt>
      <trkpt lat="45.18177" lon="5.79153">
        <ele>231.27</ele>
        <time>2019-02-18T13:30:09.000Z</time>
      </trkpt>
      <trkpt lat="45.18172" lon="5.7908">
        <ele>231.07</ele>
        <time>2019-02-18T13:30:19.000Z</time>
      </trkpt>
      <trkpt lat="45.18165" lon="5.79004">
        <ele>232.79</ele>
        <time>2019-02-18T13:30:29.000Z</time>
      </trkpt>
      <trkpt lat="45.18162" lon="5.78916">
        <ele>231.92</ele>
        <time>2019-02-18T13:30:39.000Z</time>
      </trkpt>
      <trkpt lat="45.18159" lon="5.78847">
        <ele>229.99</ele>
        <time>2019-02-18T13:30:49.000Z</time>
      </trkpt>
      <trkpt lat="45.18156" lon="5.78816">
        <ele>229.71</ele>
        <time>2019-02-18T13:30:59.000Z</time>
      </trkpt>
      <trkpt lat="45.18151" lon="5.78747">
        <ele>229.09</ele>
        <time>2019-02-18T13:31:09.000Z</time>
      </trkpt>
      <trkpt lat="45.18152" lon="5.7867">
        <ele>228.76</ele>
        <time>2019-02-18T13:31:19.000Z</time>
      </trkpt>
      <trkpt lat="45.18112" lon="5.78643">
        <ele>230.9</ele>
        <time>2019-02-18T13:31:29.000Z</time>
      </trkpt>
      <trkpt lat="45.18091" lon="5.78578">
        <ele>223.4</ele>
        <time>2019-02-18T13:31:39.000Z</time>
      </trkpt>
      <trkpt lat="45.18067" lon="5.78526">
        <ele>222.85</ele>
        <time>2019-02-18T13:31:49.000Z</time>
      </trkpt>
      <trkpt lat="45.18049" lon="5.78466">
        <ele>213.8</ele>
        <time>2019-02-18T13:31:59.000Z</time>
      </trkpt>
      <trkpt lat="45.18028" lon="5.78411">
        <ele>214.5</ele>
        <time>2019-02-18T13:32:09.000Z</time>
      </trkpt>
      <trkpt lat="45.18006" lon="5.78354">
        <ele>215.37</ele>
        <time>2019-02-18T13:32:19.000Z</time>
      </trkpt>
      <trkpt lat="45.17984" lon="5.78292">
        <ele>212.66</ele>
        <time>2019-02-18T13:32:29.000Z</time>
      </trkpt>
      <trkpt lat="45.17957" lon="5.78222">
        <ele>211.83</ele>
        <time>2019-02-18T13:32:39.000Z</time>
      </trkpt>
      <trkpt lat="45.1793" lon="5.78155">
        <ele>211.74</ele>
        <time>2019-02-18T13:32:49.000Z</time>
      </trkpt>
      <trkpt lat="45.17911" lon="5.78107">
        <ele>212.52</ele>
        <time>2019-02-18T13:32:59.000Z</time>
      </trkpt>
      <trkpt lat="45.17893" lon="5.78069">
        <ele>209.66</ele>
        <time>2019-02-18T13:33:09.000Z</time>
      </trkpt>
      <trkpt lat="45.17868" lon="5.78004">
        <ele>214.11</ele>
        <time>2019-02-18T13:33:19.000Z</time>
      </trkpt>
      <trkpt lat="45.17842" lon="5.77937">
        <ele>212.54</ele>
        <time>2019-02-18T13:33:29.000Z</time>
      </trkpt>
      <trkpt lat="45.17814" lon="5.77868">
        <ele>211.77</ele>
        <time>2019-02-18T13:33:39.000Z</time>
      </trkpt>
      <trkpt lat="45.17785" lon="5.77798">
        <ele>211.85</ele>
        <time>2019-02-18T13:33:49.000Z</time>
      </trkpt>
      <trkpt lat="45.17761" lon="5.77786">
        <ele>217.24</ele>
        <time>2019-02-18T13:33:59.000Z</time>
      </trkpt>
      <trkpt lat="45.17763" lon="5.7783">
        <ele>214.96</ele>
        <time>2019-02-18T13:34:09.000Z</time>
      </trkpt>
      <trkpt lat="45.17786" lon="5.77887">
        <ele>221.41</ele>
        <time>2019-02-18T13:34:19.000Z</time>
      </trkpt>
      <trkpt lat="45.17806" lon="5.77962">
        <ele>220.52</ele>
        <time>2019-02-18T13:34:29.000Z</time>
      </trkpt>
      <trkpt lat="45.17813" lon="5.78035">
        <ele>222.89</ele>
        <time>2019-02-18T13:34:39.000Z</time>
      </trkpt>
      <trkpt lat="45.17811" lon="5.78095">
        <ele>223.57</ele>
        <time>2019-02-18T13:34:49.000Z</time>
      </trkpt>
      <trkpt lat="45.17803" lon="5.78169">
        <ele>219.75</ele>
        <time>2019-02-18T13:34:59.000Z</time>
      </trkpt>
      <trkpt lat="45.17807" lon="5.78243">
        <ele>221.5</ele>
        <time>2019-02-18T13:35:09.000Z</time>
      </trkpt>
      <trkpt lat="45.17801" lon="5.78224">
        <ele>226.44</ele>
        <time>2019-02-18T13:35:19.000Z</time>
      </trkpt>
      <trkpt lat="45.17796" lon="5.78175">
        <ele>229.63</ele>
        <time>2019-02-18T13:35:29.000Z</time>
      </trkpt>
      <trkpt lat="45.17774" lon="5.78137">
        <ele>234.17</ele>
        <time>2019-02-18T13:35:39.000Z</time>
      </trkpt>
      <trkpt lat="45.17745" lon="5.7811">
        <ele>234.51</ele>
        <time>2019-02-18T13:35:49.000Z</time>
      </trkpt>
      <trkpt lat="45.17726" lon="5.78075">
        <ele>237.04</ele>
        <time>2019-02-18T13:35:59.000Z</time>
      </trkpt>
      <trkpt lat="45.17704" lon="5.7803">
        <ele>239.59</ele>
        <time>2019-02-18T13:36:09.000Z</time>
      </trkpt>
      <trkpt lat="45.17686" lon="5.77985">
        <ele>242.64</ele>
        <time>2019-02-18T13:36:19.000Z</time>
      </trkpt>
      <trkpt lat="45.17675" lon="5.77931">
        <ele>243.6</ele>
        <time>2019-02-18T13:36:29.000Z</time>
      </trkpt>
      <trkpt lat="45.17652" lon="5.77894">
        <ele>244.55</ele>
        <time>2019-02-18T13:36:39.000Z</time>
      </trkpt>
      <trkpt lat="45.17625" lon="5.7786">
        <ele>253.32</ele>
        <time>2019-02-18T13:36:49.000Z</time>
      </trkpt>
      <trkpt lat="45.1761" lon="5.77816">
        <ele>255.29</ele>
        <time>2019-02-18T13:36:59.000Z</time>
      </trkpt>
      <trkpt lat="45.17595" lon="5.77773">
        <ele>253.14</ele>
        <time>2019-02-18T13:37:09.000Z</time>
      </trkpt>
      <trkpt lat="45.17583" lon="5.77727">
        <ele>256.73</ele>
        <time>2019-02-18T13:37:19.000Z</time>
      </trkpt>
      <trkpt lat="45.17561" lon="5.77684">
        <ele>260.37</ele>
        <time>2019-02-18T13:37:29.000Z</time>
      </trkpt>
      <trkpt lat="45.17536" lon="5.77652">
        <ele>263.34</ele>
        <time>2019-02-18T13:37:39.000Z</time>
      </trkpt>
      <trkpt lat="45.1751" lon="5.77616">
        <ele>268.96</ele>
        <time>2019-02-18T13:37:49.000Z</time>
      </trkpt>
      <trkpt lat="45.17486" lon="5.77578">
        <ele>267.97</ele>
        <time>2019-02-18T13:37:59.000Z</time>
      </trkpt>
      <trkpt lat="45.17471" lon="5.7754">
        <ele>268.62</ele>
        <time>2019-02-18T13:38:09.000Z</time>
      </trkpt>
      <trkpt lat="45.17441" lon="5.77508">
        <ele>274.07</ele>
        <time>2019-02-18T13:38:19.000Z</time>
      </trkpt>
      <trkpt lat="45.1742" lon="5.77461">
        <ele>275.34</ele>
        <time>2019-02-18T13:38:29.000Z</time>
      </trkpt>
      <trkpt lat="45.17393" lon="5.77419">
        <ele>280.39</ele>
        <time>2019-02-18T13:38:39.000Z</time>
      </trkpt>
      <trkpt lat="45.17361" lon="5.77399">
        <ele>281.06</ele>
        <time>2019-02-18T13:38:49.000Z</time>
      </trkpt>
      <trkpt lat="45.1733" lon="5.77375">
        <ele>277.88</ele>
        <time>2019-02-18T13:38:59.000Z</time>
      </trkpt>
      <trkpt lat="45.173" lon="5.77351">
        <ele>285.02</ele>
        <time>2019-02-18T13:39:09.000Z</time>
      </trkpt>
      <trkpt lat="45.1727" lon="5.77326">
        <ele>287.92</ele>
        <time>2019-02-18T13:39:19.000Z</time>
      </trkpt>
      <trkpt lat="45.17235" lon="5.77309">
        <ele>294.57</ele>
        <time>2019-02-18T13:39:29.000Z</time>
      </trkpt>
      <trkpt lat="45.17194" lon="5.77311">
        <ele>294.67</ele>
        <time>2019-02-18T13:39:39.000Z</time>
      </trkpt>
      <trkpt lat="45.17172" lon="5.77274">
        <ele>297.93</ele>
        <time>2019-02-18T13:39:49.000Z</time>
      </trkpt>
      <trkpt lat="45.17142" lon="5.77244">
        <ele>305.57</ele>
        <time>2019-02-18T13:39:59.000Z</time>
      </trkpt>
      <trkpt lat="45.17114" lon="5.77212">
        <ele>314.46</ele>
        <time>2019-02-18T13:40:09.000Z</time>
      </trkpt>
      <trkpt lat="45.17091" lon="5.77233">
        <ele>313.54</ele>
        <time>2019-02-18T13:40:19.000Z</time>
      </trkpt>
      <trkpt lat="45.17109" lon="5.77285">
        <ele>313.79</ele>
        <time>2019-02-18T13:40:29.000Z</time>
      </trkpt>
      <trkpt lat="45.17126" lon="5.77325">
        <ele>318.21</ele>
        <time>2019-02-18T13:40:39.000Z</time>
      </trkpt>
      <trkpt lat="45.17131" lon="5.77372">
        <ele>321.26</ele>
        <time>2019-02-18T13:40:49.000Z</time>
      </trkpt>
      <trkpt lat="45.17147" lon="5.77419">
        <ele>327.69</ele>
        <time>2019-02-18T13:40:59.000Z</time>
      </trkpt>
      <trkpt lat="45.17182" lon="5.77444">
        <ele>334.1</ele>
        <time>2019-02-18T13:41:09.000Z</time>
      </trkpt>
      <trkpt lat="45.1721" lon="5.77472">
        <ele>335.8</ele>
        <time>2019-02-18T13:41:19.000Z</time>
      </trkpt>
      <trkpt lat="45.17173" lon="5.77473">
        <ele>334.42</ele>
        <time>2019-02-18T13:41:29.000Z</time>
      </trkpt>
      <trkpt lat="45.17135" lon="5.77449">
        <ele>334.33</ele>
        <time>2019-02-18T13:41:39.000Z</time>
      </trkpt>
      <trkpt lat="45.171" lon="5.77429">
        <ele>325.64</ele>
        <time>2019-02-18T13:41:49.000Z</time>
      </trkpt>
      <trkpt lat="45.17063" lon="5.77397">
        <ele>325.45</ele>
        <time>2019-02-18T13:41:59.000Z</time>
      </trkpt>
      <trkpt lat="45.17028" lon="5.77355">
        <ele>330.84</ele>
        <time>2019-02-18T13:42:09.000Z</time>
      </trkpt>
      <trkpt lat="45.16994" lon="5.77323">
        <ele>334.79</ele>
        <time>2019-02-18T13:42:19.000Z</time>
      </trkpt>
      <trkpt lat="45.16961" lon="5.77291">
        <ele>341.67</ele>
        <time>2019-02-18T13:42:29.000Z</time>
      </trkpt>
      <trkpt lat="45.16929" lon="5.77265">
        <ele>349.55</ele>
        <time>2019-02-18T13:42:39.000Z</time>
      </trkpt>
      <trkpt lat="45.16936" lon="5.77303">
        <ele>349.51</ele>
        <time>2019-02-18T13:42:49.000Z</time>
      </trkpt>
      <trkpt lat="45.1696" lon="5.77337">
        <ele>353.37</ele>
        <time>2019-02-18T13:42:59.000Z</time>
      </trkpt>
      <trkpt lat="45.16987" lon="5.77368">
        <ele>356.89</ele>
        <time>2019-02-18T13:43:09.000Z</time>
      </trkpt>
      <trkpt lat="45.17014" lon="5.77403">
        <ele>358.08</ele>
        <time>2019-02-18T13:43:19.000Z</time>
      </trkpt>
      <trkpt lat="45.1704" lon="5.77437">
        <ele>360.75</ele>
        <time>2019-02-18T13:43:29.000Z</time>
      </trkpt>
      <trkpt lat="45.17061" lon="5.77475">
        <ele>363.87</ele>
        <time>2019-02-18T13:43:39.000Z</time>
      </trkpt>
      <trkpt lat="45.17088" lon="5.77506">
        <ele>371.14</ele>
        <time>2019-02-18T13:43:49.000Z</time>
      </trkpt>
      <trkpt lat="45.17115" lon="5.77535">
        <ele>379.65</ele>
        <time>2019-02-18T13:43:59.000Z</time>
      </trkpt>
      <trkpt lat="45.17139" lon="5.77569">
        <ele>380.89</ele>
        <time>2019-02-18T13:44:09.000Z</time>
      </trkpt>
      <trkpt lat="45.17172" lon="5.77593">
        <ele>386.85</ele>
        <time>2019-02-18T13:44:19.000Z</time>
      </trkpt>
      <trkpt lat="45.17189" lon="5.77622">
        <ele>389.23</ele>
        <time>2019-02-18T13:44:29.000Z</time>
      </trkpt>
      <trkpt lat="45.17219" lon="5.77644">
        <ele>397.07</ele>
        <time>2019-02-18T13:44:39.000Z</time>
      </trkpt>
      <trkpt lat="45.17244" lon="5.7768">
        <ele>399.9</ele>
        <time>2019-02-18T13:44:49.000Z</time>
      </trkpt>
      <trkpt lat="45.17253" lon="5.77726">
        <ele>403.11</ele>
        <time>2019-02-18T13:44:59.000Z</time>
      </trkpt>
      <trkpt lat="45.17267" lon="5.77776">
        <ele>407.65</ele>
        <time>2019-02-18T13:45:09.000Z</time>
      </trkpt>
      <trkpt lat="45.17287" lon="5.77821">
        <ele>412.43</ele>
        <time>2019-02-18T13:45:19.000Z</time>
      </trkpt>
      <trkpt lat="45.17307" lon="5.77863">
        <ele>418.5</ele>
        <time>2019-02-18T13:45:29.000Z</time>
      </trkpt>
      <trkpt lat="45.17324" lon="5.77905">
        <ele>423.96</ele>
        <time>2019-02-18T13:45:39.000Z</time>
      </trkpt>
      <trkpt lat="45.17344" lon="5.77946">
        <ele>426.74</ele>
        <time>2019-02-18T13:45:49.000Z</time>
      </trkpt>
      <trkpt lat="45.17363" lon="5.77985">
        <ele>431.01</ele>
        <time>2019-02-18T13:45:59.000Z</time>
      </trkpt>
      <trkpt lat="45.17376" lon="5.78034">
        <ele>432.6</ele>
        <time>2019-02-18T13:46:09.000Z</time>
      </trkpt>
      <trkpt lat="45.17385" lon="5.7808">
        <ele>435.94</ele>
        <time>2019-02-18T13:46:19.000Z</time>
      </trkpt>
      <trkpt lat="45.17374" lon="5.78128">
        <ele>435.36</ele>
        <time>2019-02-18T13:46:29.000Z</time>
      </trkpt>
      <trkpt lat="45.17351" lon="5.78154">
        <ele>436.01</ele>
        <time>2019-02-18T13:46:39.000Z</time>
      </trkpt>
      <trkpt lat="45.17351" lon="5.78161">
        <ele>437.65</ele>
        <time>2019-02-18T13:46:49.000Z</time>
      </trkpt>
      <trkpt lat="45.17347" lon="5.78155">
        <ele>436.06</ele>
        <time>2019-02-18T13:46:59.000Z</time>
      </trkpt>
      <trkpt lat="45.17346" lon="5.78156">
        <ele>439.32</ele>
        <time>2019-02-18T13:47:19.000Z</time>
      </trkpt>
      <trkpt lat="45.17318" lon="5.7818">
        <ele>440.56</ele>
        <time>2019-02-18T13:47:29.000Z</time>
      </trkpt>
      <trkpt lat="45.17266" lon="5.7822">
        <ele>435.83</ele>
        <time>2019-02-18T13:47:39.000Z</time>
      </trkpt>
      <trkpt lat="45.17197" lon="5.78257">
        <ele>425.98</ele>
        <time>2019-02-18T13:47:49.000Z</time>
      </trkpt>
      <trkpt lat="45.17155" lon="5.78223">
        <ele>426.23</ele>
        <time>2019-02-18T13:47:59.000Z</time>
      </trkpt>
      <trkpt lat="45.17134" lon="5.78186">
        <ele>423.89</ele>
        <time>2019-02-18T13:48:09.000Z</time>
      </trkpt>
      <trkpt lat="45.17103" lon="5.78177">
        <ele>422.92</ele>
        <time>2019-02-18T13:48:19.000Z</time>
      </trkpt>
      <trkpt lat="45.17071" lon="5.78194">
        <ele>424.36</ele>
        <time>2019-02-18T13:48:29.000Z</time>
      </trkpt>
      <trkpt lat="45.17034" lon="5.78207">
        <ele>427.06</ele>
        <time>2019-02-18T13:48:39.000Z</time>
      </trkpt>
      <trkpt lat="45.16999" lon="5.78197">
        <ele>426.73</ele>
        <time>2019-02-18T13:48:49.000Z</time>
      </trkpt>
      <trkpt lat="45.16969" lon="5.7818">
        <ele>428.15</ele>
        <time>2019-02-18T13:48:59.000Z</time>
      </trkpt>
      <trkpt lat="45.16936" lon="5.78168">
        <ele>433.76</ele>
        <time>2019-02-18T13:49:09.000Z</time>
      </trkpt>
      <trkpt lat="45.16907" lon="5.78134">
        <ele>440.17</ele>
        <time>2019-02-18T13:49:19.000Z</time>
      </trkpt>
      <trkpt lat="45.16874" lon="5.78109">
        <ele>441.37</ele>
        <time>2019-02-18T13:49:29.000Z</time>
      </trkpt>
      <trkpt lat="45.16839" lon="5.7811">
        <ele>450.38</ele>
        <time>2019-02-18T13:49:39.000Z</time>
      </trkpt>
      <trkpt lat="45.16814" lon="5.78095">
        <ele>453.61</ele>
        <time>2019-02-18T13:49:49.000Z</time>
      </trkpt>
      <trkpt lat="45.16788" lon="5.78072">
        <ele>455.9</ele>
        <time>2019-02-18T13:49:59.000Z</time>
      </trkpt>
      <trkpt lat="45.16763" lon="5.78052">
        <ele>460.21</ele>
        <time>2019-02-18T13:50:09.000Z</time>
      </trkpt>
      <trkpt lat="45.16735" lon="5.78028">
        <ele>460.76</ele>
        <time>2019-02-18T13:50:19.000Z</time>
      </trkpt>
      <trkpt lat="45.16704" lon="5.78013">
        <ele>459.88</ele>
        <time>2019-02-18T13:50:29.000Z</time>
      </trkpt>
      <trkpt lat="45.16669" lon="5.7802">
        <ele>458.25</ele>
        <time>2019-02-18T13:50:39.000Z</time>
      </trkpt>
      <trkpt lat="45.16662" lon="5.77972">
        <ele>467.66</ele>
        <time>2019-02-18T13:50:49.000Z</time>
      </trkpt>
      <trkpt lat="45.16626" lon="5.7796">
        <ele>468.14</ele>
        <time>2019-02-18T13:50:59.000Z</time>
      </trkpt>
      <trkpt lat="45.16597" lon="5.77983">
        <ele>474.59</ele>
        <time>2019-02-18T13:51:09.000Z</time>
      </trkpt>
      <trkpt lat="45.16563" lon="5.77997">
        <ele>476.41</ele>
        <time>2019-02-18T13:51:19.000Z</time>
      </trkpt>
      <trkpt lat="45.16533" lon="5.78015">
        <ele>481.35</ele>
        <time>2019-02-18T13:51:29.000Z</time>
      </trkpt>
      <trkpt lat="45.16518" lon="5.78055">
        <ele>487.3</ele>
        <time>2019-02-18T13:51:39.000Z</time>
      </trkpt>
      <trkpt lat="45.16499" lon="5.78104">
        <ele>495.87</ele>
        <time>2019-02-18T13:51:49.000Z</time>
      </trkpt>
      <trkpt lat="45.16486" lon="5.7815">
        <ele>497.65</ele>
        <time>2019-02-18T13:51:59.000Z</time>
      </trkpt>
      <trkpt lat="45.16484" lon="5.78158">
        <ele>498.7</ele>
        <time>2019-02-18T13:52:09.000Z</time>
      </trkpt>
      <trkpt lat="45.16484" lon="5.78156">
        <ele>497.51</ele>
        <time>2019-02-18T13:52:19.000Z</time>
      </trkpt>
      <trkpt lat="45.16485" lon="5.78154">
        <ele>494.51</ele>
        <time>2019-02-18T13:53:51.000Z</time>
      </trkpt>
      <trkpt lat="45.16477" lon="5.78172">
        <ele>496.57</ele>
        <time>2019-02-18T13:54:01.000Z</time>
      </trkpt>
      <trkpt lat="45.16443" lon="5.78178">
        <ele>497.33</ele>
        <time>2019-02-18T13:54:11.000Z</time>
      </trkpt>
      <trkpt lat="45.16414" lon="5.78199">
        <ele>501.23</ele>
        <time>2019-02-18T13:54:21.000Z</time>
      </trkpt>
      <trkpt lat="45.16394" lon="5.78241">
        <ele>503.26</ele>
        <time>2019-02-18T13:54:31.000Z</time>
      </trkpt>
      <trkpt lat="45.16377" lon="5.78288">
        <ele>504.31</ele>
        <time>2019-02-18T13:54:41.000Z</time>
      </trkpt>
      <trkpt lat="45.16373" lon="5.7834">
        <ele>511.03</ele>
        <time>2019-02-18T13:54:51.000Z</time>
      </trkpt>
      <trkpt lat="45.16388" lon="5.78389">
        <ele>520.53</ele>
        <time>2019-02-18T13:55:01.000Z</time>
      </trkpt>
      <trkpt lat="45.16374" lon="5.78434">
        <ele>518.84</ele>
        <time>2019-02-18T13:55:11.000Z</time>
      </trkpt>
      <trkpt lat="45.16355" lon="5.78486">
        <ele>514.2</ele>
        <time>2019-02-18T13:55:21.000Z</time>
      </trkpt>
      <trkpt lat="45.1634" lon="5.78533">
        <ele>515.87</ele>
        <time>2019-02-18T13:55:31.000Z</time>
      </trkpt>
      <trkpt lat="45.16327" lon="5.78581">
        <ele>520.43</ele>
        <time>2019-02-18T13:55:41.000Z</time>
      </trkpt>
      <trkpt lat="45.16317" lon="5.78634">
        <ele>519.7</ele>
        <time>2019-02-18T13:55:51.000Z</time>
      </trkpt>
      <trkpt lat="45.16304" lon="5.78688">
        <ele>519.17</ele>
        <time>2019-02-18T13:56:01.000Z</time>
      </trkpt>
      <trkpt lat="45.16292" lon="5.7873">
        <ele>522.06</ele>
        <time>2019-02-18T13:56:11.000Z</time>
      </trkpt>
      <trkpt lat="45.16249" lon="5.78758">
        <ele>529.11</ele>
        <time>2019-02-18T13:56:21.000Z</time>
      </trkpt>
      <trkpt lat="45.16214" lon="5.78762">
        <ele>529.05</ele>
        <time>2019-02-18T13:56:31.000Z</time>
      </trkpt>
      <trkpt lat="45.16193" lon="5.78708">
        <ele>531.47</ele>
        <time>2019-02-18T13:56:41.000Z</time>
      </trkpt>
      <trkpt lat="45.16192" lon="5.78633">
        <ele>532.32</ele>
        <time>2019-02-18T13:56:51.000Z</time>
      </trkpt>
      <trkpt lat="45.16164" lon="5.78567">
        <ele>534.12</ele>
        <time>2019-02-18T13:57:01.000Z</time>
      </trkpt>
      <trkpt lat="45.16137" lon="5.78509">
        <ele>532.13</ele>
        <time>2019-02-18T13:57:11.000Z</time>
      </trkpt>
      <trkpt lat="45.16112" lon="5.7845">
        <ele>535.49</ele>
        <time>2019-02-18T13:57:21.000Z</time>
      </trkpt>
      <trkpt lat="45.16071" lon="5.78417">
        <ele>532.88</ele>
        <time>2019-02-18T13:57:31.000Z</time>
      </trkpt>
      <trkpt lat="45.16039" lon="5.78385">
        <ele>537.07</ele>
        <time>2019-02-18T13:57:41.000Z</time>
      </trkpt>
      <trkpt lat="45.16046" lon="5.78321">
        <ele>533.8</ele>
        <time>2019-02-18T13:57:51.000Z</time>
      </trkpt>
      <trkpt lat="45.16028" lon="5.78259">
        <ele>532.37</ele>
        <time>2019-02-18T13:58:01.000Z</time>
      </trkpt>
      <trkpt lat="45.16036" lon="5.78183">
        <ele>532.07</ele>
        <time>2019-02-18T13:58:11.000Z</time>
      </trkpt>
      <trkpt lat="45.16046" lon="5.78113">
        <ele>533.92</ele>
        <time>2019-02-18T13:58:21.000Z</time>
      </trkpt>
      <trkpt lat="45.16047" lon="5.78037">
        <ele>538.67</ele>
        <time>2019-02-18T13:58:31.000Z</time>
      </trkpt>
      <trkpt lat="45.16028" lon="5.7797">
        <ele>542.29</ele>
        <time>2019-02-18T13:58:41.000Z</time>
      </trkpt>
      <trkpt lat="45.16012" lon="5.77909">
        <ele>543.89</ele>
        <time>2019-02-18T13:58:51.000Z</time>
      </trkpt>
      <trkpt lat="45.15985" lon="5.77869">
        <ele>546.06</ele>
        <time>2019-02-18T13:59:01.000Z</time>
      </trkpt>
      <trkpt lat="45.15965" lon="5.77829">
        <ele>551.17</ele>
        <time>2019-02-18T13:59:11.000Z</time>
      </trkpt>
      <trkpt lat="45.15933" lon="5.77803">
        <ele>554.24</ele>
        <time>2019-02-18T13:59:21.000Z</time>
      </trkpt>
      <trkpt lat="45.15907" lon="5.77771">
        <ele>557.57</ele>
        <time>2019-02-18T13:59:31.000Z</time>
      </trkpt>
      <trkpt lat="45.15885" lon="5.77731">
        <ele>562.58</ele>
        <time>2019-02-18T13:59:41.000Z</time>
      </trkpt>
      <trkpt lat="45.15853" lon="5.7771">
        <ele>564.51</ele>
        <time>2019-02-18T13:59:51.000Z</time>
      </trkpt>
      <trkpt lat="45.15818" lon="5.77692">
        <ele>567.71</ele>
        <time>2019-02-18T14:00:01.000Z</time>
      </trkpt>
      <trkpt lat="45.15788" lon="5.77666">
        <ele>577.14</ele>
        <time>2019-02-18T14:00:11.000Z</time>
      </trkpt>
      <trkpt lat="45.15761" lon="5.77641">
        <ele>584.84</ele>
        <time>2019-02-18T14:00:21.000Z</time>
      </trkpt>
      <trkpt lat="45.1573" lon="5.77618">
        <ele>584.26</ele>
        <time>2019-02-18T14:00:31.000Z</time>
      </trkpt>
      <trkpt lat="45.15702" lon="5.77581">
        <ele>587.6</ele>
        <time>2019-02-18T14:00:41.000Z</time>
      </trkpt>
      <trkpt lat="45.15672" lon="5.77552">
        <ele>589.68</ele>
        <time>2019-02-18T14:00:51.000Z</time>
      </trkpt>
      <trkpt lat="45.1564" lon="5.77546">
        <ele>588.35</ele>
        <time>2019-02-18T14:01:01.000Z</time>
      </trkpt>
      <trkpt lat="45.15606" lon="5.77542">
        <ele>594.16</ele>
        <time>2019-02-18T14:01:11.000Z</time>
      </trkpt>
      <trkpt lat="45.15578" lon="5.77535">
        <ele>598.28</ele>
        <time>2019-02-18T14:01:21.000Z</time>
      </trkpt>
      <trkpt lat="45.15546" lon="5.77524">
        <ele>603.07</ele>
        <time>2019-02-18T14:01:31.000Z</time>
      </trkpt>
      <trkpt lat="45.15516" lon="5.7751">
        <ele>602.28</ele>
        <time>2019-02-18T14:01:41.000Z</time>
      </trkpt>
      <trkpt lat="45.15482" lon="5.77511">
        <ele>606.03</ele>
        <time>2019-02-18T14:01:51.000Z</time>
      </trkpt>
      <trkpt lat="45.15445" lon="5.77506">
        <ele>608.8</ele>
        <time>2019-02-18T14:02:01.000Z</time>
      </trkpt>
      <trkpt lat="45.15411" lon="5.77511">
        <ele>614.11</ele>
        <time>2019-02-18T14:02:11.000Z</time>
      </trkpt>
      <trkpt lat="45.15377" lon="5.77519">
        <ele>613.27</ele>
        <time>2019-02-18T14:02:21.000Z</time>
      </trkpt>
      <trkpt lat="45.15349" lon="5.77542">
        <ele>619.09</ele>
        <time>2019-02-18T14:02:31.000Z</time>
      </trkpt>
      <trkpt lat="45.15327" lon="5.7757">
        <ele>619.24</ele>
        <time>2019-02-18T14:02:41.000Z</time>
      </trkpt>
      <trkpt lat="45.1531" lon="5.77597">
        <ele>623.93</ele>
        <time>2019-02-18T14:02:51.000Z</time>
      </trkpt>
      <trkpt lat="45.1531" lon="5.77598">
        <ele>623.26</ele>
        <time>2019-02-18T14:04:40.000Z</time>
      </trkpt>
      <trkpt lat="45.15311" lon="5.77604">
        <ele>624.27</ele>
        <time>2019-02-18T14:04:50.000Z</time>
      </trkpt>
      <trkpt lat="45.15301" lon="5.77644">
        <ele>628.19</ele>
        <time>2019-02-18T14:05:00.000Z</time>
      </trkpt>
      <trkpt lat="45.15283" lon="5.77683">
        <ele>629.67</ele>
        <time>2019-02-18T14:05:10.000Z</time>
      </trkpt>
      <trkpt lat="45.15264" lon="5.77724">
        <ele>634.92</ele>
        <time>2019-02-18T14:05:20.000Z</time>
      </trkpt>
      <trkpt lat="45.15235" lon="5.77741">
        <ele>638.81</ele>
        <time>2019-02-18T14:05:30.000Z</time>
      </trkpt>
      <trkpt lat="45.15207" lon="5.77778">
        <ele>638.77</ele>
        <time>2019-02-18T14:05:40.000Z</time>
      </trkpt>
      <trkpt lat="45.15185" lon="5.77823">
        <ele>640.23</ele>
        <time>2019-02-18T14:05:50.000Z</time>
      </trkpt>
      <trkpt lat="45.15183" lon="5.77873">
        <ele>646.56</ele>
        <time>2019-02-18T14:06:00.000Z</time>
      </trkpt>
      <trkpt lat="45.15193" lon="5.77929">
        <ele>652.87</ele>
        <time>2019-02-18T14:06:10.000Z</time>
      </trkpt>
      <trkpt lat="45.15193" lon="5.7798">
        <ele>652.52</ele>
        <time>2019-02-18T14:06:20.000Z</time>
      </trkpt>
      <trkpt lat="45.15193" lon="5.78031">
        <ele>653.59</ele>
        <time>2019-02-18T14:06:30.000Z</time>
      </trkpt>
      <trkpt lat="45.15194" lon="5.78079">
        <ele>657.35</ele>
        <time>2019-02-18T14:06:40.000Z</time>
      </trkpt>
      <trkpt lat="45.15198" lon="5.78133">
        <ele>660.69</ele>
        <time>2019-02-18T14:06:50.000Z</time>
      </trkpt>
      <trkpt lat="45.15173" lon="5.78152">
        <ele>661.23</ele>
        <time>2019-02-18T14:07:00.000Z</time>
      </trkpt>
      <trkpt lat="45.15138" lon="5.78176">
        <ele>664.53</ele>
        <time>2019-02-18T14:07:10.000Z</time>
      </trkpt>
      <trkpt lat="45.15109" lon="5.78206">
        <ele>670.19</ele>
        <time>2019-02-18T14:07:20.000Z</time>
      </trkpt>
      <trkpt lat="45.15076" lon="5.78205">
        <ele>677.12</ele>
        <time>2019-02-18T14:07:30.000Z</time>
      </trkpt>
      <trkpt lat="45.15037" lon="5.782">
        <ele>680.43</ele>
        <time>2019-02-18T14:07:40.000Z</time>
      </trkpt>
      <trkpt lat="45.15" lon="5.78212">
        <ele>689.3</ele>
        <time>2019-02-18T14:07:50.000Z</time>
      </trkpt>
      <trkpt lat="45.14955" lon="5.78236">
        <ele>695.63</ele>
        <time>2019-02-18T14:08:00.000Z</time>
      </trkpt>
      <trkpt lat="45.14924" lon="5.7827">
        <ele>695.36</ele>
        <time>2019-02-18T14:08:10.000Z</time>
      </trkpt>
      <trkpt lat="45.14929" lon="5.78322">
        <ele>692.42</ele>
        <time>2019-02-18T14:08:20.000Z</time>
      </trkpt>
      <trkpt lat="45.14948" lon="5.78373">
        <ele>697.7</ele>
        <time>2019-02-18T14:08:30.000Z</time>
      </trkpt>
      <trkpt lat="45.14965" lon="5.78411">
        <ele>697.99</ele>
        <time>2019-02-18T14:08:40.000Z</time>
      </trkpt>
      <trkpt lat="45.14979" lon="5.78455">
        <ele>700.15</ele>
        <time>2019-02-18T14:08:50.000Z</time>
      </trkpt>
      <trkpt lat="45.15002" lon="5.78506">
        <ele>706.26</ele>
        <time>2019-02-18T14:09:00.000Z</time>
      </trkpt>
      <trkpt lat="45.15028" lon="5.78546">
        <ele>711.16</ele>
        <time>2019-02-18T14:09:10.000Z</time>
      </trkpt>
      <trkpt lat="45.15057" lon="5.78583">
        <ele>716.98</ele>
        <time>2019-02-18T14:09:20.000Z</time>
      </trkpt>
      <trkpt lat="45.15078" lon="5.78622">
        <ele>714.6</ele>
        <time>2019-02-18T14:09:30.000Z</time>
      </trkpt>
      <trkpt lat="45.15106" lon="5.78659">
        <ele>720.8</ele>
        <time>2019-02-18T14:09:40.000Z</time>
      </trkpt>
      <trkpt lat="45.15133" lon="5.78697">
        <ele>725.37</ele>
        <time>2019-02-18T14:09:50.000Z</time>
      </trkpt>
      <trkpt lat="45.15152" lon="5.78744">
        <ele>731.2</ele>
        <time>2019-02-18T14:10:00.000Z</time>
      </trkpt>
      <trkpt lat="45.15169" lon="5.78788">
        <ele>730.21</ele>
        <time>2019-02-18T14:10:10.000Z</time>
      </trkpt>
      <trkpt lat="45.15187" lon="5.78833">
        <ele>734.59</ele>
        <time>2019-02-18T14:10:20.000Z</time>
      </trkpt>
      <trkpt lat="45.15205" lon="5.78879">
        <ele>740.88</ele>
        <time>2019-02-18T14:10:30.000Z</time>
      </trkpt>
      <trkpt lat="45.15225" lon="5.78928">
        <ele>744.26</ele>
        <time>2019-02-18T14:10:40.000Z</time>
      </trkpt>
      <trkpt lat="45.15234" lon="5.78981">
        <ele>747.29</ele>
        <time>2019-02-18T14:10:50.000Z</time>
      </trkpt>
      <trkpt lat="45.1525" lon="5.79025">
        <ele>754.45</ele>
        <time>2019-02-18T14:11:00.000Z</time>
      </trkpt>
      <trkpt lat="45.15284" lon="5.79025">
        <ele>758.4</ele>
        <time>2019-02-18T14:11:10.000Z</time>
      </trkpt>
      <trkpt lat="45.15322" lon="5.79009">
        <ele>763.33</ele>
        <time>2019-02-18T14:11:20.000Z</time>
      </trkpt>
      <trkpt lat="45.15362" lon="5.79024">
        <ele>766.11</ele>
        <time>2019-02-18T14:11:30.000Z</time>
      </trkpt>
      <trkpt lat="45.15394" lon="5.79053">
        <ele>767.62</ele>
        <time>2019-02-18T14:11:40.000Z</time>
      </trkpt>
      <trkpt lat="45.15415" lon="5.79096">
        <ele>774.46</ele>
        <time>2019-02-18T14:11:50.000Z</time>
      </trkpt>
      <trkpt lat="45.15409" lon="5.79149">
        <ele>780.85</ele>
        <time>2019-02-18T14:12:00.000Z</time>
      </trkpt>
      <trkpt lat="45.15434" lon="5.79186">
        <ele>785.13</ele>
        <time>2019-02-18T14:12:10.000Z</time>
      </trkpt>
      <trkpt lat="45.15462" lon="5.79212">
        <ele>788.55</ele>
        <time>2019-02-18T14:12:20.000Z</time>
      </trkpt>
      <trkpt lat="45.1548" lon="5.79238">
        <ele>789.73</ele>
        <time>2019-02-18T14:12:30.000Z</time>
      </trkpt>
      <trkpt lat="45.15474" lon="5.79239">
        <ele>793.02</ele>
        <time>2019-02-18T14:12:40.000Z</time>
      </trkpt>
      <trkpt lat="45.15472" lon="5.79241">
        <ele>791.6</ele>
        <time>2019-02-18T14:12:50.000Z</time>
      </trkpt>
      <trkpt lat="45.15472" lon="5.79244">
        <ele>792.02</ele>
        <time>2019-02-18T14:14:22.000Z</time>
      </trkpt>
      <trkpt lat="45.15455" lon="5.79322">
        <ele>788.18</ele>
        <time>2019-02-18T14:14:32.000Z</time>
      </trkpt>
      <trkpt lat="45.15393" lon="5.79413">
        <ele>779.87</ele>
        <time>2019-02-18T14:14:42.000Z</time>
      </trkpt>
      <trkpt lat="45.15308" lon="5.79496">
        <ele>767.58</ele>
        <time>2019-02-18T14:14:52.000Z</time>
      </trkpt>
      <trkpt lat="45.15215" lon="5.79559">
        <ele>758.86</ele>
        <time>2019-02-18T14:15:02.000Z</time>
      </trkpt>
      <trkpt lat="45.15212" lon="5.79497">
        <ele>758.11</ele>
        <time>2019-02-18T14:15:12.000Z</time>
      </trkpt>
      <trkpt lat="45.15247" lon="5.79373">
        <ele>751.8</ele>
        <time>2019-02-18T14:15:22.000Z</time>
      </trkpt>
      <trkpt lat="45.15176" lon="5.79383">
        <ele>745.61</ele>
        <time>2019-02-18T14:15:32.000Z</time>
      </trkpt>
      <trkpt lat="45.15107" lon="5.79484">
        <ele>736.16</ele>
        <time>2019-02-18T14:15:42.000Z</time>
      </trkpt>
      <trkpt lat="45.15035" lon="5.79626">
        <ele>715.58</ele>
        <time>2019-02-18T14:15:52.000Z</time>
      </trkpt>
      <trkpt lat="45.14971" lon="5.79785">
        <ele>705</ele>
        <time>2019-02-18T14:16:02.000Z</time>
      </trkpt>
      <trkpt lat="45.14938" lon="5.79839">
        <ele>697.19</ele>
        <time>2019-02-18T14:16:12.000Z</time>
      </trkpt>
      <trkpt lat="45.14933" lon="5.79801">
        <ele>693.01</ele>
        <time>2019-02-18T14:16:22.000Z</time>
      </trkpt>
      <trkpt lat="45.14945" lon="5.79731">
        <ele>687.78</ele>
        <time>2019-02-18T14:16:32.000Z</time>
      </trkpt>
      <trkpt lat="45.14951" lon="5.79674">
        <ele>683.83</ele>
        <time>2019-02-18T14:16:42.000Z</time>
      </trkpt>
      <trkpt lat="45.14946" lon="5.79622">
        <ele>687.4</ele>
        <time>2019-02-18T14:16:52.000Z</time>
      </trkpt>
      <trkpt lat="45.14888" lon="5.79678">
        <ele>677.22</ele>
        <time>2019-02-18T14:17:02.000Z</time>
      </trkpt>
      <trkpt lat="45.14837" lon="5.79701">
        <ele>674.79</ele>
        <time>2019-02-18T14:17:12.000Z</time>
      </trkpt>
      <trkpt lat="45.14857" lon="5.79575">
        <ele>670.51</ele>
        <time>2019-02-18T14:17:22.000Z</time>
      </trkpt>
      <trkpt lat="45.1488" lon="5.79474">
        <ele>658.48</ele>
        <time>2019-02-18T14:17:32.000Z</time>
      </trkpt>
      <trkpt lat="45.14839" lon="5.79468">
        <ele>653.05</ele>
        <time>2019-02-18T14:17:42.000Z</time>
      </trkpt>
      <trkpt lat="45.14783" lon="5.79537">
        <ele>645.89</ele>
        <time>2019-02-18T14:17:52.000Z</time>
      </trkpt>
      <trkpt lat="45.14748" lon="5.79553">
        <ele>638.43</ele>
        <time>2019-02-18T14:18:02.000Z</time>
      </trkpt>
      <trkpt lat="45.14738" lon="5.79547">
        <ele>639.01</ele>
        <time>2019-02-18T14:18:12.000Z</time>
      </trkpt>
      <trkpt lat="45.14732" lon="5.79551">
        <ele>642.23</ele>
        <time>2019-02-18T14:18:22.000Z</time>
      </trkpt>
      <trkpt lat="45.1473" lon="5.79552">
        <ele>641.91</ele>
        <time>2019-02-18T14:18:35.000Z</time>
      </trkpt>
      <trkpt lat="45.1469" lon="5.79566">
        <ele>636.41</ele>
        <time>2019-02-18T14:18:45.000Z</time>
      </trkpt>
      <trkpt lat="45.14655" lon="5.79586">
        <ele>633.86</ele>
        <time>2019-02-18T14:18:55.000Z</time>
      </trkpt>
      <trkpt lat="45.14621" lon="5.7961">
        <ele>634.58</ele>
        <time>2019-02-18T14:19:05.000Z</time>
      </trkpt>
      <trkpt lat="45.14585" lon="5.79639">
        <ele>634.98</ele>
        <time>2019-02-18T14:19:15.000Z</time>
      </trkpt>
      <trkpt lat="45.14562" lon="5.79673">
        <ele>640.48</ele>
        <time>2019-02-18T14:19:25.000Z</time>
      </trkpt>
      <trkpt lat="45.14543" lon="5.7972">
        <ele>641.06</ele>
        <time>2019-02-18T14:19:35.000Z</time>
      </trkpt>
      <trkpt lat="45.14534" lon="5.79754">
        <ele>640.33</ele>
        <time>2019-02-18T14:19:45.000Z</time>
      </trkpt>
      <trkpt lat="45.14527" lon="5.79785">
        <ele>641.81</ele>
        <time>2019-02-18T14:19:55.000Z</time>
      </trkpt>
      <trkpt lat="45.1451" lon="5.79844">
        <ele>637.34</ele>
        <time>2019-02-18T14:20:05.000Z</time>
      </trkpt>
      <trkpt lat="45.14499" lon="5.79934">
        <ele>634.84</ele>
        <time>2019-02-18T14:20:15.000Z</time>
      </trkpt>
      <trkpt lat="45.14525" lon="5.80041">
        <ele>627.74</ele>
        <time>2019-02-18T14:20:25.000Z</time>
      </trkpt>
      <trkpt lat="45.14551" lon="5.80155">
        <ele>616.72</ele>
        <time>2019-02-18T14:20:35.000Z</time>
      </trkpt>
      <trkpt lat="45.14561" lon="5.80276">
        <ele>612.1</ele>
        <time>2019-02-18T14:20:45.000Z</time>
      </trkpt>
      <trkpt lat="45.1452" lon="5.80351">
        <ele>607.96</ele>
        <time>2019-02-18T14:20:55.000Z</time>
      </trkpt>
      <trkpt lat="45.14509" lon="5.80427">
        <ele>605.71</ele>
        <time>2019-02-18T14:21:05.000Z</time>
      </trkpt>
      <trkpt lat="45.14509" lon="5.80488">
        <ele>601.77</ele>
        <time>2019-02-18T14:21:15.000Z</time>
      </trkpt>
      <trkpt lat="45.14494" lon="5.80533">
        <ele>597.13</ele>
        <time>2019-02-18T14:21:25.000Z</time>
      </trkpt>
      <trkpt lat="45.1447" lon="5.80611">
        <ele>593.42</ele>
        <time>2019-02-18T14:21:35.000Z</time>
      </trkpt>
      <trkpt lat="45.14475" lon="5.80644">
        <ele>593.66</ele>
        <time>2019-02-18T14:21:45.000Z</time>
      </trkpt>
      <trkpt lat="45.14488" lon="5.80687">
        <ele>589.86</ele>
        <time>2019-02-18T14:21:55.000Z</time>
      </trkpt>
      <trkpt lat="45.14509" lon="5.80733">
        <ele>591.17</ele>
        <time>2019-02-18T14:22:05.000Z</time>
      </trkpt>
      <trkpt lat="45.14536" lon="5.80792">
        <ele>591.31</ele>
        <time>2019-02-18T14:22:15.000Z</time>
      </trkpt>
      <trkpt lat="45.14561" lon="5.80847">
        <ele>594.51</ele>
        <time>2019-02-18T14:22:25.000Z</time>
      </trkpt>
      <trkpt lat="45.14593" lon="5.80907">
        <ele>592.99</ele>
        <time>2019-02-18T14:22:35.000Z</time>
      </trkpt>
      <trkpt lat="45.14629" lon="5.80966">
        <ele>593.9</ele>
        <time>2019-02-18T14:22:45.000Z</time>
      </trkpt>
      <trkpt lat="45.1466" lon="5.81019">
        <ele>595.97</ele>
        <time>2019-02-18T14:22:55.000Z</time>
      </trkpt>
      <trkpt lat="45.14688" lon="5.81064">
        <ele>602.34</ele>
        <time>2019-02-18T14:23:05.000Z</time>
      </trkpt>
      <trkpt lat="45.14724" lon="5.81104">
        <ele>601.76</ele>
        <time>2019-02-18T14:23:15.000Z</time>
      </trkpt>
      <trkpt lat="45.14766" lon="5.81159">
        <ele>599.13</ele>
        <time>2019-02-18T14:23:25.000Z</time>
      </trkpt>
      <trkpt lat="45.14816" lon="5.81222">
        <ele>601.32</ele>
        <time>2019-02-18T14:23:35.000Z</time>
      </trkpt>
      <trkpt lat="45.14854" lon="5.81311">
        <ele>594.29</ele>
        <time>2019-02-18T14:23:45.000Z</time>
      </trkpt>
      <trkpt lat="45.14876" lon="5.81388">
        <ele>596.13</ele>
        <time>2019-02-18T14:23:55.000Z</time>
      </trkpt>
      <trkpt lat="45.14907" lon="5.81474">
        <ele>587.71</ele>
        <time>2019-02-18T14:24:05.000Z</time>
      </trkpt>
      <trkpt lat="45.14944" lon="5.81566">
        <ele>588.15</ele>
        <time>2019-02-18T14:24:15.000Z</time>
      </trkpt>
      <trkpt lat="45.14951" lon="5.81655">
        <ele>587.37</ele>
        <time>2019-02-18T14:24:25.000Z</time>
      </trkpt>
      <trkpt lat="45.14955" lon="5.81683">
        <ele>581.23</ele>
        <time>2019-02-18T14:24:35.000Z</time>
      </trkpt>
      <trkpt lat="45.14953" lon="5.81684">
        <ele>581.75</ele>
        <time>2019-02-18T14:24:45.000Z</time>
      </trkpt>
      <trkpt lat="45.14947" lon="5.8169">
        <ele>583.08</ele>
        <time>2019-02-18T14:24:55.000Z</time>
      </trkpt>
      <trkpt lat="45.14951" lon="5.81682">
        <ele>586.69</ele>
        <time>2019-02-18T14:25:05.000Z</time>
      </trkpt>
      <trkpt lat="45.14954" lon="5.81683">
        <ele>587.49</ele>
        <time>2019-02-18T14:25:15.000Z</time>
      </trkpt>
      <trkpt lat="45.14953" lon="5.81685">
        <ele>587.77</ele>
        <time>2019-02-18T14:25:25.000Z</time>
      </trkpt>
      <trkpt lat="45.14988" lon="5.81682">
        <ele>588.9</ele>
        <time>2019-02-18T14:25:35.000Z</time>
      </trkpt>
      <trkpt lat="45.15" lon="5.81677">
        <ele>593.27</ele>
        <time>2019-02-18T14:25:45.000Z</time>
      </trkpt>
      <trkpt lat="45.14995" lon="5.81678">
        <ele>589.54</ele>
        <time>2019-02-18T14:25:55.000Z</time>
      </trkpt>
      <trkpt lat="45.14993" lon="5.81677">
        <ele>588.82</ele>
        <time>2019-02-18T14:26:05.000Z</time>
      </trkpt>
      <trkpt lat="45.15004" lon="5.81683">
        <ele>580.86</ele>
        <time>2019-02-18T14:26:15.000Z</time>
      </trkpt>
      <trkpt lat="45.15" lon="5.81679">
        <ele>581.18</ele>
        <time>2019-02-18T14:26:25.000Z</time>
      </trkpt>
      <trkpt lat="45.14979" lon="5.81677">
        <ele>580.4</ele>
        <time>2019-02-18T14:26:35.000Z</time>
      </trkpt>
      <trkpt lat="45.14959" lon="5.81676">
        <ele>582.4</ele>
        <time>2019-02-18T14:26:45.000Z</time>
      </trkpt>
      <trkpt lat="45.14938" lon="5.81697">
        <ele>581.81</ele>
        <time>2019-02-18T14:26:55.000Z</time>
      </trkpt>
      <trkpt lat="45.14896" lon="5.81709">
        <ele>580.28</ele>
        <time>2019-02-18T14:27:05.000Z</time>
      </trkpt>
      <trkpt lat="45.1485" lon="5.81727">
        <ele>569.11</ele>
        <time>2019-02-18T14:27:15.000Z</time>
      </trkpt>
      <trkpt lat="45.14812" lon="5.8175">
        <ele>565.94</ele>
        <time>2019-02-18T14:27:25.000Z</time>
      </trkpt>
      <trkpt lat="45.14812" lon="5.81752">
        <ele>564.28</ele>
        <time>2019-02-18T14:27:35.000Z</time>
      </trkpt>
      <trkpt lat="45.14804" lon="5.81754">
        <ele>565.59</ele>
        <time>2019-02-18T14:27:45.000Z</time>
      </trkpt>
      <trkpt lat="45.14778" lon="5.81783">
        <ele>560.09</ele>
        <time>2019-02-18T14:27:55.000Z</time>
      </trkpt>
      <trkpt lat="45.14743" lon="5.81834">
        <ele>562.35</ele>
        <time>2019-02-18T14:28:05.000Z</time>
      </trkpt>
      <trkpt lat="45.14721" lon="5.81878">
        <ele>558.81</ele>
        <time>2019-02-18T14:28:15.000Z</time>
      </trkpt>
      <trkpt lat="45.14757" lon="5.81928">
        <ele>554.93</ele>
        <time>2019-02-18T14:28:25.000Z</time>
      </trkpt>
      <trkpt lat="45.14775" lon="5.81951">
        <ele>544.47</ele>
        <time>2019-02-18T14:28:35.000Z</time>
      </trkpt>
      <trkpt lat="45.14706" lon="5.82002">
        <ele>546.51</ele>
        <time>2019-02-18T14:28:45.000Z</time>
      </trkpt>
      <trkpt lat="45.14667" lon="5.8211">
        <ele>544.24</ele>
        <time>2019-02-18T14:28:55.000Z</time>
      </trkpt>
      <trkpt lat="45.14638" lon="5.82231">
        <ele>541.95</ele>
        <time>2019-02-18T14:29:05.000Z</time>
      </trkpt>
      <trkpt lat="45.14608" lon="5.82321">
        <ele>533.26</ele>
        <time>2019-02-18T14:29:15.000Z</time>
      </trkpt>
      <trkpt lat="45.14596" lon="5.82393">
        <ele>531.66</ele>
        <time>2019-02-18T14:29:25.000Z</time>
      </trkpt>
      <trkpt lat="45.14612" lon="5.82477">
        <ele>524.49</ele>
        <time>2019-02-18T14:29:35.000Z</time>
      </trkpt>
      <trkpt lat="45.14587" lon="5.8255">
        <ele>522.34</ele>
        <time>2019-02-18T14:29:45.000Z</time>
      </trkpt>
      <trkpt lat="45.14548" lon="5.82622">
        <ele>517.96</ele>
        <time>2019-02-18T14:29:55.000Z</time>
      </trkpt>
      <trkpt lat="45.145" lon="5.8267">
        <ele>511.29</ele>
        <time>2019-02-18T14:30:05.000Z</time>
      </trkpt>
      <trkpt lat="45.14437" lon="5.82722">
        <ele>494.17</ele>
        <time>2019-02-18T14:30:15.000Z</time>
      </trkpt>
      <trkpt lat="45.1437" lon="5.82758">
        <ele>485.5</ele>
        <time>2019-02-18T14:30:25.000Z</time>
      </trkpt>
      <trkpt lat="45.14294" lon="5.82796">
        <ele>474.82</ele>
        <time>2019-02-18T14:30:35.000Z</time>
      </trkpt>
      <trkpt lat="45.14203" lon="5.82778">
        <ele>461.01</ele>
        <time>2019-02-18T14:30:45.000Z</time>
      </trkpt>
      <trkpt lat="45.14126" lon="5.82728">
        <ele>450.52</ele>
        <time>2019-02-18T14:30:55.000Z</time>
      </trkpt>
      <trkpt lat="45.14123" lon="5.82751">
        <ele>440.69</ele>
        <time>2019-02-18T14:31:05.000Z</time>
      </trkpt>
      <trkpt lat="45.1411" lon="5.82766">
        <ele>434.72</ele>
        <time>2019-02-18T14:31:15.000Z</time>
      </trkpt>
      <trkpt lat="45.14064" lon="5.82671">
        <ele>423.21</ele>
        <time>2019-02-18T14:31:25.000Z</time>
      </trkpt>
      <trkpt lat="45.14012" lon="5.82663">
        <ele>414.04</ele>
        <time>2019-02-18T14:31:35.000Z</time>
      </trkpt>
      <trkpt lat="45.13965" lon="5.82735">
        <ele>419.01</ele>
        <time>2019-02-18T14:31:45.000Z</time>
      </trkpt>
      <trkpt lat="45.13964" lon="5.82746">
        <ele>425.99</ele>
        <time>2019-02-18T14:31:55.000Z</time>
      </trkpt>
      <trkpt lat="45.13963" lon="5.82744">
        <ele>431.08</ele>
        <time>2019-02-18T14:32:05.000Z</time>
      </trkpt>
      <trkpt lat="45.13964" lon="5.82746">
        <ele>432.16</ele>
        <time>2019-02-18T14:32:15.000Z</time>
      </trkpt>
      <trkpt lat="45.13964" lon="5.82744">
        <ele>432.53</ele>
        <time>2019-02-18T14:32:33.000Z</time>
      </trkpt>
      <trkpt lat="45.13965" lon="5.82741">
        <ele>428.76</ele>
        <time>2019-02-18T14:32:43.000Z</time>
      </trkpt>
      <trkpt lat="45.13964" lon="5.82743">
        <ele>427.13</ele>
        <time>2019-02-18T14:32:54.000Z</time>
      </trkpt>
      <trkpt lat="45.13964" lon="5.82744">
        <ele>425.27</ele>
        <time>2019-02-18T14:33:07.000Z</time>
      </trkpt>
      <trkpt lat="45.13946" lon="5.82767">
        <ele>417.14</ele>
        <time>2019-02-18T14:33:17.000Z</time>
      </trkpt>
      <trkpt lat="45.13943" lon="5.82819">
        <ele>420.01</ele>
        <time>2019-02-18T14:33:27.000Z</time>
      </trkpt>
      <trkpt lat="45.13937" lon="5.82869">
        <ele>412.19</ele>
        <time>2019-02-18T14:33:37.000Z</time>
      </trkpt>
      <trkpt lat="45.13938" lon="5.82931">
        <ele>409.08</ele>
        <time>2019-02-18T14:33:47.000Z</time>
      </trkpt>
      <trkpt lat="45.13934" lon="5.82987">
        <ele>412.31</ele>
        <time>2019-02-18T14:33:57.000Z</time>
      </trkpt>
      <trkpt lat="45.13937" lon="5.83046">
        <ele>415.33</ele>
        <time>2019-02-18T14:34:07.000Z</time>
      </trkpt>
      <trkpt lat="45.13956" lon="5.83098">
        <ele>427.72</ele>
        <time>2019-02-18T14:34:17.000Z</time>
      </trkpt>
      <trkpt lat="45.13965" lon="5.8316">
        <ele>425.15</ele>
        <time>2019-02-18T14:34:27.000Z</time>
      </trkpt>
      <trkpt lat="45.13966" lon="5.83213">
        <ele>431.28</ele>
        <time>2019-02-18T14:34:37.000Z</time>
      </trkpt>
      <trkpt lat="45.13954" lon="5.8326">
        <ele>438.51</ele>
        <time>2019-02-18T14:34:47.000Z</time>
      </trkpt>
      <trkpt lat="45.13938" lon="5.83312">
        <ele>440.92</ele>
        <time>2019-02-18T14:34:57.000Z</time>
      </trkpt>
      <trkpt lat="45.13965" lon="5.8336">
        <ele>444.96</ele>
        <time>2019-02-18T14:35:07.000Z</time>
      </trkpt>
      <trkpt lat="45.13992" lon="5.83392">
        <ele>445.09</ele>
        <time>2019-02-18T14:35:17.000Z</time>
      </trkpt>
      <trkpt lat="45.14018" lon="5.83431">
        <ele>449.02</ele>
        <time>2019-02-18T14:35:27.000Z</time>
      </trkpt>
      <trkpt lat="45.14053" lon="5.83469">
        <ele>451.68</ele>
        <time>2019-02-18T14:35:37.000Z</time>
      </trkpt>
      <trkpt lat="45.14082" lon="5.835">
        <ele>456.38</ele>
        <time>2019-02-18T14:35:47.000Z</time>
      </trkpt>
      <trkpt lat="45.14118" lon="5.83498">
        <ele>457.09</ele>
        <time>2019-02-18T14:35:57.000Z</time>
      </trkpt>
      <trkpt lat="45.1416" lon="5.83484">
        <ele>460.2</ele>
        <time>2019-02-18T14:36:07.000Z</time>
      </trkpt>
      <trkpt lat="45.14183" lon="5.83439">
        <ele>464.63</ele>
        <time>2019-02-18T14:36:17.000Z</time>
      </trkpt>
      <trkpt lat="45.14184" lon="5.83387">
        <ele>466.25</ele>
        <time>2019-02-18T14:36:27.000Z</time>
      </trkpt>
      <trkpt lat="45.14197" lon="5.83342">
        <ele>469.16</ele>
        <time>2019-02-18T14:36:37.000Z</time>
      </trkpt>
      <trkpt lat="45.14229" lon="5.83323">
        <ele>469.05</ele>
        <time>2019-02-18T14:36:47.000Z</time>
      </trkpt>
      <trkpt lat="45.14267" lon="5.83309">
        <ele>472.68</ele>
        <time>2019-02-18T14:36:57.000Z</time>
      </trkpt>
      <trkpt lat="45.14304" lon="5.83294">
        <ele>476.04</ele>
        <time>2019-02-18T14:37:07.000Z</time>
      </trkpt>
      <trkpt lat="45.14333" lon="5.83295">
        <ele>479.01</ele>
        <time>2019-02-18T14:37:17.000Z</time>
      </trkpt>
      <trkpt lat="45.14296" lon="5.83329">
        <ele>479.66</ele>
        <time>2019-02-18T14:37:27.000Z</time>
      </trkpt>
      <trkpt lat="45.14267" lon="5.83351">
        <ele>491.51</ele>
        <time>2019-02-18T14:37:37.000Z</time>
      </trkpt>
      <trkpt lat="45.14249" lon="5.83388">
        <ele>500.75</ele>
        <time>2019-02-18T14:37:47.000Z</time>
      </trkpt>
      <trkpt lat="45.14257" lon="5.83437">
        <ele>504.15</ele>
        <time>2019-02-18T14:37:57.000Z</time>
      </trkpt>
      <trkpt lat="45.14273" lon="5.83482">
        <ele>509.5</ele>
        <time>2019-02-18T14:38:07.000Z</time>
      </trkpt>
      <trkpt lat="45.14287" lon="5.8353">
        <ele>513.3</ele>
        <time>2019-02-18T14:38:17.000Z</time>
      </trkpt>
      <trkpt lat="45.14307" lon="5.83575">
        <ele>518.11</ele>
        <time>2019-02-18T14:38:27.000Z</time>
      </trkpt>
      <trkpt lat="45.14328" lon="5.83613">
        <ele>518.55</ele>
        <time>2019-02-18T14:38:37.000Z</time>
      </trkpt>
      <trkpt lat="45.14349" lon="5.83655">
        <ele>522.85</ele>
        <time>2019-02-18T14:38:47.000Z</time>
      </trkpt>
      <trkpt lat="45.14383" lon="5.83663">
        <ele>527.97</ele>
        <time>2019-02-18T14:38:57.000Z</time>
      </trkpt>
      <trkpt lat="45.14414" lon="5.83627">
        <ele>530.07</ele>
        <time>2019-02-18T14:39:07.000Z</time>
      </trkpt>
      <trkpt lat="45.14446" lon="5.83603">
        <ele>535.69</ele>
        <time>2019-02-18T14:39:17.000Z</time>
      </trkpt>
      <trkpt lat="45.14478" lon="5.8362">
        <ele>538.21</ele>
        <time>2019-02-18T14:39:27.000Z</time>
      </trkpt>
      <trkpt lat="45.14507" lon="5.83651">
        <ele>540.3</ele>
        <time>2019-02-18T14:39:37.000Z</time>
      </trkpt>
      <trkpt lat="45.14537" lon="5.83674">
        <ele>543.84</ele>
        <time>2019-02-18T14:39:47.000Z</time>
      </trkpt>
      <trkpt lat="45.14572" lon="5.83695">
        <ele>547.65</ele>
        <time>2019-02-18T14:39:57.000Z</time>
      </trkpt>
      <trkpt lat="45.14609" lon="5.83715">
        <ele>549.6</ele>
        <time>2019-02-18T14:40:07.000Z</time>
      </trkpt>
      <trkpt lat="45.14645" lon="5.8372">
        <ele>553.13</ele>
        <time>2019-02-18T14:40:17.000Z</time>
      </trkpt>
      <trkpt lat="45.14682" lon="5.83726">
        <ele>559.55</ele>
        <time>2019-02-18T14:40:27.000Z</time>
      </trkpt>
      <trkpt lat="45.14713" lon="5.83754">
        <ele>564.16</ele>
        <time>2019-02-18T14:40:37.000Z</time>
      </trkpt>
      <trkpt lat="45.14749" lon="5.83779">
        <ele>565.67</ele>
        <time>2019-02-18T14:40:47.000Z</time>
      </trkpt>
      <trkpt lat="45.14784" lon="5.83775">
        <ele>568.49</ele>
        <time>2019-02-18T14:40:57.000Z</time>
      </trkpt>
      <trkpt lat="45.14821" lon="5.83765">
        <ele>569.56</ele>
        <time>2019-02-18T14:41:07.000Z</time>
      </trkpt>
      <trkpt lat="45.14866" lon="5.83745">
        <ele>573.1</ele>
        <time>2019-02-18T14:41:17.000Z</time>
      </trkpt>
      <trkpt lat="45.14908" lon="5.83721">
        <ele>574.9</ele>
        <time>2019-02-18T14:41:27.000Z</time>
      </trkpt>
      <trkpt lat="45.14947" lon="5.83694">
        <ele>579.74</ele>
        <time>2019-02-18T14:41:37.000Z</time>
      </trkpt>
      <trkpt lat="45.14993" lon="5.83672">
        <ele>581.62</ele>
        <time>2019-02-18T14:41:47.000Z</time>
      </trkpt>
      <trkpt lat="45.15035" lon="5.83677">
        <ele>585.43</ele>
        <time>2019-02-18T14:41:57.000Z</time>
      </trkpt>
      <trkpt lat="45.15073" lon="5.83709">
        <ele>583.67</ele>
        <time>2019-02-18T14:42:07.000Z</time>
      </trkpt>
      <trkpt lat="45.15112" lon="5.83731">
        <ele>583.41</ele>
        <time>2019-02-18T14:42:17.000Z</time>
      </trkpt>
      <trkpt lat="45.15148" lon="5.83759">
        <ele>581.94</ele>
        <time>2019-02-18T14:42:27.000Z</time>
      </trkpt>
      <trkpt lat="45.15183" lon="5.83785">
        <ele>583.69</ele>
        <time>2019-02-18T14:42:37.000Z</time>
      </trkpt>
      <trkpt lat="45.15218" lon="5.83816">
        <ele>593.23</ele>
        <time>2019-02-18T14:42:47.000Z</time>
      </trkpt>
      <trkpt lat="45.1525" lon="5.83854">
        <ele>594.34</ele>
        <time>2019-02-18T14:42:57.000Z</time>
      </trkpt>
      <trkpt lat="45.15297" lon="5.83859">
        <ele>596.48</ele>
        <time>2019-02-18T14:43:07.000Z</time>
      </trkpt>
      <trkpt lat="45.15339" lon="5.83882">
        <ele>601.48</ele>
        <time>2019-02-18T14:43:17.000Z</time>
      </trkpt>
      <trkpt lat="45.15361" lon="5.8392">
        <ele>602.42</ele>
        <time>2019-02-18T14:43:27.000Z</time>
      </trkpt>
      <trkpt lat="45.15397" lon="5.83938">
        <ele>602.75</ele>
        <time>2019-02-18T14:43:37.000Z</time>
      </trkpt>
      <trkpt lat="45.15434" lon="5.83953">
        <ele>609.03</ele>
        <time>2019-02-18T14:43:47.000Z</time>
      </trkpt>
      <trkpt lat="45.1547" lon="5.83983">
        <ele>617.3</ele>
        <time>2019-02-18T14:43:57.000Z</time>
      </trkpt>
      <trkpt lat="45.15508" lon="5.84016">
        <ele>613.91</ele>
        <time>2019-02-18T14:44:07.000Z</time>
      </trkpt>
      <trkpt lat="45.15521" lon="5.84062">
        <ele>614.59</ele>
        <time>2019-02-18T14:44:17.000Z</time>
      </trkpt>
      <trkpt lat="45.15528" lon="5.84109">
        <ele>617.47</ele>
        <time>2019-02-18T14:44:27.000Z</time>
      </trkpt>
      <trkpt lat="45.15518" lon="5.84159">
        <ele>618.89</ele>
        <time>2019-02-18T14:44:37.000Z</time>
      </trkpt>
      <trkpt lat="45.15519" lon="5.84223">
        <ele>621.09</ele>
        <time>2019-02-18T14:44:47.000Z</time>
      </trkpt>
      <trkpt lat="45.15545" lon="5.842">
        <ele>619.45</ele>
        <time>2019-02-18T14:44:57.000Z</time>
      </trkpt>
      <trkpt lat="45.15582" lon="5.84169">
        <ele>616.92</ele>
        <time>2019-02-18T14:45:07.000Z</time>
      </trkpt>
      <trkpt lat="45.15626" lon="5.84152">
        <ele>620.37</ele>
        <time>2019-02-18T14:45:17.000Z</time>
      </trkpt>
      <trkpt lat="45.15633" lon="5.8415">
        <ele>618.57</ele>
        <time>2019-02-18T14:45:27.000Z</time>
      </trkpt>
      <trkpt lat="45.15633" lon="5.84149">
        <ele>619.86</ele>
        <time>2019-02-18T14:46:23.000Z</time>
      </trkpt>
      <trkpt lat="45.15648" lon="5.84116">
        <ele>621.14</ele>
        <time>2019-02-18T14:46:33.000Z</time>
      </trkpt>
      <trkpt lat="45.15672" lon="5.84065">
        <ele>623.3</ele>
        <time>2019-02-18T14:46:43.000Z</time>
      </trkpt>
      <trkpt lat="45.15717" lon="5.84062">
        <ele>620.61</ele>
        <time>2019-02-18T14:46:53.000Z</time>
      </trkpt>
      <trkpt lat="45.15756" lon="5.84081">
        <ele>627.49</ele>
        <time>2019-02-18T14:47:03.000Z</time>
      </trkpt>
      <trkpt lat="45.15788" lon="5.84045">
        <ele>634.79</ele>
        <time>2019-02-18T14:47:13.000Z</time>
      </trkpt>
      <trkpt lat="45.15826" lon="5.84017">
        <ele>634.34</ele>
        <time>2019-02-18T14:47:23.000Z</time>
      </trkpt>
      <trkpt lat="45.1587" lon="5.84008">
        <ele>633.62</ele>
        <time>2019-02-18T14:47:33.000Z</time>
      </trkpt>
      <trkpt lat="45.1592" lon="5.83989">
        <ele>639.26</ele>
        <time>2019-02-18T14:47:43.000Z</time>
      </trkpt>
      <trkpt lat="45.15964" lon="5.83957">
        <ele>644.61</ele>
        <time>2019-02-18T14:47:53.000Z</time>
      </trkpt>
      <trkpt lat="45.16006" lon="5.83907">
        <ele>646.96</ele>
        <time>2019-02-18T14:48:03.000Z</time>
      </trkpt>
      <trkpt lat="45.16058" lon="5.8386">
        <ele>647.51</ele>
        <time>2019-02-18T14:48:13.000Z</time>
      </trkpt>
      <trkpt lat="45.16106" lon="5.83796">
        <ele>649.69</ele>
        <time>2019-02-18T14:48:23.000Z</time>
      </trkpt>
      <trkpt lat="45.16159" lon="5.8374">
        <ele>651.64</ele>
        <time>2019-02-18T14:48:33.000Z</time>
      </trkpt>
      <trkpt lat="45.16213" lon="5.83692">
        <ele>647.08</ele>
        <time>2019-02-18T14:48:43.000Z</time>
      </trkpt>
      <trkpt lat="45.16257" lon="5.83636">
        <ele>650.26</ele>
        <time>2019-02-18T14:48:53.000Z</time>
      </trkpt>
      <trkpt lat="45.16295" lon="5.83598">
        <ele>652.06</ele>
        <time>2019-02-18T14:49:03.000Z</time>
      </trkpt>
      <trkpt lat="45.16328" lon="5.83559">
        <ele>656.07</ele>
        <time>2019-02-18T14:49:13.000Z</time>
      </trkpt>
      <trkpt lat="45.16378" lon="5.83529">
        <ele>652.61</ele>
        <time>2019-02-18T14:49:23.000Z</time>
      </trkpt>
      <trkpt lat="45.16421" lon="5.83512">
        <ele>658.4</ele>
        <time>2019-02-18T14:49:33.000Z</time>
      </trkpt>
      <trkpt lat="45.16431" lon="5.83566">
        <ele>658.51</ele>
        <time>2019-02-18T14:49:43.000Z</time>
      </trkpt>
      <trkpt lat="45.16418" lon="5.8362">
        <ele>661.63</ele>
        <time>2019-02-18T14:49:53.000Z</time>
      </trkpt>
      <trkpt lat="45.164" lon="5.8365">
        <ele>667.58</ele>
        <time>2019-02-18T14:50:03.000Z</time>
      </trkpt>
      <trkpt lat="45.16413" lon="5.83663">
        <ele>670.31</ele>
        <time>2019-02-18T14:50:13.000Z</time>
      </trkpt>
      <trkpt lat="45.16448" lon="5.83673">
        <ele>671.06</ele>
        <time>2019-02-18T14:50:23.000Z</time>
      </trkpt>
      <trkpt lat="45.1648" lon="5.83683">
        <ele>673.36</ele>
        <time>2019-02-18T14:50:33.000Z</time>
      </trkpt>
      <trkpt lat="45.16517" lon="5.83682">
        <ele>680.62</ele>
        <time>2019-02-18T14:50:43.000Z</time>
      </trkpt>
      <trkpt lat="45.16556" lon="5.83668">
        <ele>681.43</ele>
        <time>2019-02-18T14:50:53.000Z</time>
      </trkpt>
      <trkpt lat="45.16595" lon="5.83653">
        <ele>680.96</ele>
        <time>2019-02-18T14:51:03.000Z</time>
      </trkpt>
      <trkpt lat="45.16632" lon="5.8366">
        <ele>683.52</ele>
        <time>2019-02-18T14:51:13.000Z</time>
      </trkpt>
      <trkpt lat="45.16665" lon="5.8369">
        <ele>685.89</ele>
        <time>2019-02-18T14:51:23.000Z</time>
      </trkpt>
      <trkpt lat="45.167" lon="5.83724">
        <ele>690.08</ele>
        <time>2019-02-18T14:51:33.000Z</time>
      </trkpt>
      <trkpt lat="45.16731" lon="5.8377">
        <ele>690.76</ele>
        <time>2019-02-18T14:51:43.000Z</time>
      </trkpt>
      <trkpt lat="45.16762" lon="5.83813">
        <ele>691.33</ele>
        <time>2019-02-18T14:51:53.000Z</time>
      </trkpt>
      <trkpt lat="45.16785" lon="5.83857">
        <ele>696.51</ele>
        <time>2019-02-18T14:52:03.000Z</time>
      </trkpt>
      <trkpt lat="45.16812" lon="5.83907">
        <ele>697.53</ele>
        <time>2019-02-18T14:52:13.000Z</time>
      </trkpt>
      <trkpt lat="45.16835" lon="5.83961">
        <ele>700.52</ele>
        <time>2019-02-18T14:52:23.000Z</time>
      </trkpt>
      <trkpt lat="45.16855" lon="5.84014">
        <ele>704</ele>
        <time>2019-02-18T14:52:33.000Z</time>
      </trkpt>
      <trkpt lat="45.16877" lon="5.8406">
        <ele>708.85</ele>
        <time>2019-02-18T14:52:43.000Z</time>
      </trkpt>
      <trkpt lat="45.16899" lon="5.84113">
        <ele>713.8</ele>
        <time>2019-02-18T14:52:53.000Z</time>
      </trkpt>
      <trkpt lat="45.16919" lon="5.84168">
        <ele>714.73</ele>
        <time>2019-02-18T14:53:03.000Z</time>
      </trkpt>
      <trkpt lat="45.1693" lon="5.84221">
        <ele>716.26</ele>
        <time>2019-02-18T14:53:13.000Z</time>
      </trkpt>
      <trkpt lat="45.16952" lon="5.84278">
        <ele>714.5</ele>
        <time>2019-02-18T14:53:23.000Z</time>
      </trkpt>
      <trkpt lat="45.16983" lon="5.84331">
        <ele>722.24</ele>
        <time>2019-02-18T14:53:33.000Z</time>
      </trkpt>
      <trkpt lat="45.17007" lon="5.84382">
        <ele>725.42</ele>
        <time>2019-02-18T14:53:43.000Z</time>
      </trkpt>
      <trkpt lat="45.17031" lon="5.84435">
        <ele>727.18</ele>
        <time>2019-02-18T14:53:53.000Z</time>
      </trkpt>
      <trkpt lat="45.17055" lon="5.84486">
        <ele>728.65</ele>
        <time>2019-02-18T14:54:03.000Z</time>
      </trkpt>
      <trkpt lat="45.17082" lon="5.84541">
        <ele>729.91</ele>
        <time>2019-02-18T14:54:13.000Z</time>
      </trkpt>
      <trkpt lat="45.17109" lon="5.84593">
        <ele>732.7</ele>
        <time>2019-02-18T14:54:23.000Z</time>
      </trkpt>
      <trkpt lat="45.17143" lon="5.84638">
        <ele>736.62</ele>
        <time>2019-02-18T14:54:33.000Z</time>
      </trkpt>
      <trkpt lat="45.17159" lon="5.84667">
        <ele>740.94</ele>
        <time>2019-02-18T14:54:43.000Z</time>
      </trkpt>
      <trkpt lat="45.17169" lon="5.84669">
        <ele>739.92</ele>
        <time>2019-02-18T14:54:53.000Z</time>
      </trkpt>
      <trkpt lat="45.17171" lon="5.84669">
        <ele>739.6</ele>
        <time>2019-02-18T14:56:16.000Z</time>
      </trkpt>
      <trkpt lat="45.17193" lon="5.84695">
        <ele>741.32</ele>
        <time>2019-02-18T14:56:26.000Z</time>
      </trkpt>
      <trkpt lat="45.17207" lon="5.84752">
        <ele>739.51</ele>
        <time>2019-02-18T14:56:36.000Z</time>
      </trkpt>
      <trkpt lat="45.17172" lon="5.84817">
        <ele>740.65</ele>
        <time>2019-02-18T14:56:46.000Z</time>
      </trkpt>
      <trkpt lat="45.17166" lon="5.84931">
        <ele>739.83</ele>
        <time>2019-02-18T14:56:56.000Z</time>
      </trkpt>
      <trkpt lat="45.17164" lon="5.85047">
        <ele>735.77</ele>
        <time>2019-02-18T14:57:06.000Z</time>
      </trkpt>
      <trkpt lat="45.17098" lon="5.8511">
        <ele>731.96</ele>
        <time>2019-02-18T14:57:16.000Z</time>
      </trkpt>
      <trkpt lat="45.1701" lon="5.85138">
        <ele>721.52</ele>
        <time>2019-02-18T14:57:26.000Z</time>
      </trkpt>
      <trkpt lat="45.16953" lon="5.85191">
        <ele>713.78</ele>
        <time>2019-02-18T14:57:36.000Z</time>
      </trkpt>
      <trkpt lat="45.16968" lon="5.85309">
        <ele>702.72</ele>
        <time>2019-02-18T14:57:46.000Z</time>
      </trkpt>
      <trkpt lat="45.1702" lon="5.85406">
        <ele>701.5</ele>
        <time>2019-02-18T14:57:56.000Z</time>
      </trkpt>
      <trkpt lat="45.17065" lon="5.85535">
        <ele>694.02</ele>
        <time>2019-02-18T14:58:06.000Z</time>
      </trkpt>
      <trkpt lat="45.17115" lon="5.85682">
        <ele>679.79</ele>
        <time>2019-02-18T14:58:16.000Z</time>
      </trkpt>
      <trkpt lat="45.17193" lon="5.85783">
        <ele>667.52</ele>
        <time>2019-02-18T14:58:26.000Z</time>
      </trkpt>
      <trkpt lat="45.17262" lon="5.85892">
        <ele>661.13</ele>
        <time>2019-02-18T14:58:36.000Z</time>
      </trkpt>
      <trkpt lat="45.17304" lon="5.85899">
        <ele>656.41</ele>
        <time>2019-02-18T14:58:46.000Z</time>
      </trkpt>
      <trkpt lat="45.17284" lon="5.85778">
        <ele>650.27</ele>
        <time>2019-02-18T14:58:56.000Z</time>
      </trkpt>
      <trkpt lat="45.17292" lon="5.85709">
        <ele>642.77</ele>
        <time>2019-02-18T14:59:06.000Z</time>
      </trkpt>
      <trkpt lat="45.17356" lon="5.85792">
        <ele>635.85</ele>
        <time>2019-02-18T14:59:16.000Z</time>
      </trkpt>
      <trkpt lat="45.1743" lon="5.85871">
        <ele>633.71</ele>
        <time>2019-02-18T14:59:26.000Z</time>
      </trkpt>
      <trkpt lat="45.1747" lon="5.85972">
        <ele>625.32</ele>
        <time>2019-02-18T14:59:36.000Z</time>
      </trkpt>
      <trkpt lat="45.17537" lon="5.86004">
        <ele>621.59</ele>
        <time>2019-02-18T14:59:46.000Z</time>
      </trkpt>
      <trkpt lat="45.17608" lon="5.86036">
        <ele>615.06</ele>
        <time>2019-02-18T14:59:56.000Z</time>
      </trkpt>
      <trkpt lat="45.17633" lon="5.8612">
        <ele>614.34</ele>
        <time>2019-02-18T15:00:06.000Z</time>
      </trkpt>
      <trkpt lat="45.17671" lon="5.86201">
        <ele>616.79</ele>
        <time>2019-02-18T15:00:16.000Z</time>
      </trkpt>
      <trkpt lat="45.17702" lon="5.86256">
        <ele>617.53</ele>
        <time>2019-02-18T15:00:26.000Z</time>
      </trkpt>
      <trkpt lat="45.1773" lon="5.86319">
        <ele>616.36</ele>
        <time>2019-02-18T15:00:36.000Z</time>
      </trkpt>
      <trkpt lat="45.1777" lon="5.86347">
        <ele>616.69</ele>
        <time>2019-02-18T15:00:46.000Z</time>
      </trkpt>
      <trkpt lat="45.17807" lon="5.86382">
        <ele>611.91</ele>
        <time>2019-02-18T15:00:56.000Z</time>
      </trkpt>
      <trkpt lat="45.17854" lon="5.86377">
        <ele>614.22</ele>
        <time>2019-02-18T15:01:06.000Z</time>
      </trkpt>
      <trkpt lat="45.17901" lon="5.86372">
        <ele>616.64</ele>
        <time>2019-02-18T15:01:16.000Z</time>
      </trkpt>
      <trkpt lat="45.17942" lon="5.86366">
        <ele>616.68</ele>
        <time>2019-02-18T15:01:26.000Z</time>
      </trkpt>
      <trkpt lat="45.17982" lon="5.86359">
        <ele>616.17</ele>
        <time>2019-02-18T15:01:36.000Z</time>
      </trkpt>
      <trkpt lat="45.18015" lon="5.8641">
        <ele>614.46</ele>
        <time>2019-02-18T15:01:46.000Z</time>
      </trkpt>
      <trkpt lat="45.18018" lon="5.86537">
        <ele>611.14</ele>
        <time>2019-02-18T15:01:56.000Z</time>
      </trkpt>
      <trkpt lat="45.18017" lon="5.86673">
        <ele>604.31</ele>
        <time>2019-02-18T15:02:06.000Z</time>
      </trkpt>
      <trkpt lat="45.18033" lon="5.86834">
        <ele>603.65</ele>
        <time>2019-02-18T15:02:16.000Z</time>
      </trkpt>
      <trkpt lat="45.18044" lon="5.86968">
        <ele>596.17</ele>
        <time>2019-02-18T15:02:26.000Z</time>
      </trkpt>
      <trkpt lat="45.18033" lon="5.87088">
        <ele>577.42</ele>
        <time>2019-02-18T15:02:36.000Z</time>
      </trkpt>
      <trkpt lat="45.18038" lon="5.87213">
        <ele>565.3</ele>
        <time>2019-02-18T15:02:46.000Z</time>
      </trkpt>
      <trkpt lat="45.18082" lon="5.87209">
        <ele>553.61</ele>
        <time>2019-02-18T15:02:56.000Z</time>
      </trkpt>
      <trkpt lat="45.18112" lon="5.87161">
        <ele>550.01</ele>
        <time>2019-02-18T15:03:06.000Z</time>
      </trkpt>
      <trkpt lat="45.18153" lon="5.87131">
        <ele>555.03</ele>
        <time>2019-02-18T15:03:16.000Z</time>
      </trkpt>
      <trkpt lat="45.18195" lon="5.87113">
        <ele>565.03</ele>
        <time>2019-02-18T15:03:26.000Z</time>
      </trkpt>
      <trkpt lat="45.18212" lon="5.87072">
        <ele>574.95</ele>
        <time>2019-02-18T15:03:36.000Z</time>
      </trkpt>
      <trkpt lat="45.1823" lon="5.87011">
        <ele>577.31</ele>
        <time>2019-02-18T15:03:46.000Z</time>
      </trkpt>
      <trkpt lat="45.18248" lon="5.86952">
        <ele>574.19</ele>
        <time>2019-02-18T15:03:56.000Z</time>
      </trkpt>
      <trkpt lat="45.18262" lon="5.86894">
        <ele>581.91</ele>
        <time>2019-02-18T15:04:06.000Z</time>
      </trkpt>
      <trkpt lat="45.18275" lon="5.86833">
        <ele>590.8</ele>
        <time>2019-02-18T15:04:16.000Z</time>
      </trkpt>
      <trkpt lat="45.18289" lon="5.86774">
        <ele>592.77</ele>
        <time>2019-02-18T15:04:26.000Z</time>
      </trkpt>
      <trkpt lat="45.18302" lon="5.86715">
        <ele>601.09</ele>
        <time>2019-02-18T15:04:36.000Z</time>
      </trkpt>
      <trkpt lat="45.18332" lon="5.86675">
        <ele>604.21</ele>
        <time>2019-02-18T15:04:46.000Z</time>
      </trkpt>
      <trkpt lat="45.18363" lon="5.86634">
        <ele>607.89</ele>
        <time>2019-02-18T15:04:56.000Z</time>
      </trkpt>
      <trkpt lat="45.18394" lon="5.86592">
        <ele>611.02</ele>
        <time>2019-02-18T15:05:06.000Z</time>
      </trkpt>
      <trkpt lat="45.18428" lon="5.8661">
        <ele>620.49</ele>
        <time>2019-02-18T15:05:16.000Z</time>
      </trkpt>
      <trkpt lat="45.18465" lon="5.86643">
        <ele>623.8</ele>
        <time>2019-02-18T15:05:26.000Z</time>
      </trkpt>
      <trkpt lat="45.185" lon="5.86697">
        <ele>624.51</ele>
        <time>2019-02-18T15:05:36.000Z</time>
      </trkpt>
      <trkpt lat="45.18487" lon="5.867">
        <ele>624.58</ele>
        <time>2019-02-18T15:05:46.000Z</time>
      </trkpt>
      <trkpt lat="45.18483" lon="5.86745">
        <ele>626.34</ele>
        <time>2019-02-18T15:05:56.000Z</time>
      </trkpt>
      <trkpt lat="45.18455" lon="5.86775">
        <ele>636.71</ele>
        <time>2019-02-18T15:06:06.000Z</time>
      </trkpt>
      <trkpt lat="45.18433" lon="5.86815">
        <ele>637.79</ele>
        <time>2019-02-18T15:06:16.000Z</time>
      </trkpt>
      <trkpt lat="45.18419" lon="5.86862">
        <ele>638.15</ele>
        <time>2019-02-18T15:06:26.000Z</time>
      </trkpt>
      <trkpt lat="45.18402" lon="5.86909">
        <ele>645.54</ele>
        <time>2019-02-18T15:06:36.000Z</time>
      </trkpt>
      <trkpt lat="45.18384" lon="5.86953">
        <ele>647.24</ele>
        <time>2019-02-18T15:06:46.000Z</time>
      </trkpt>
      <trkpt lat="45.1837" lon="5.86998">
        <ele>654.91</ele>
        <time>2019-02-18T15:06:56.000Z</time>
      </trkpt>
      <trkpt lat="45.18364" lon="5.87048">
        <ele>653.43</ele>
        <time>2019-02-18T15:07:06.000Z</time>
      </trkpt>
      <trkpt lat="45.18364" lon="5.87104">
        <ele>654.52</ele>
        <time>2019-02-18T15:07:16.000Z</time>
      </trkpt>
      <trkpt lat="45.18363" lon="5.87161">
        <ele>658.15</ele>
        <time>2019-02-18T15:07:26.000Z</time>
      </trkpt>
      <trkpt lat="45.18389" lon="5.87199">
        <ele>661.13</ele>
        <time>2019-02-18T15:07:36.000Z</time>
      </trkpt>
      <trkpt lat="45.18407" lon="5.87232">
        <ele>664.05</ele>
        <time>2019-02-18T15:07:46.000Z</time>
      </trkpt>
      <trkpt lat="45.1839" lon="5.87279">
        <ele>669.67</ele>
        <time>2019-02-18T15:07:56.000Z</time>
      </trkpt>
      <trkpt lat="45.18393" lon="5.87327">
        <ele>676.49</ele>
        <time>2019-02-18T15:08:06.000Z</time>
      </trkpt>
      <trkpt lat="45.18393" lon="5.87373">
        <ele>684.19</ele>
        <time>2019-02-18T15:08:16.000Z</time>
      </trkpt>
      <trkpt lat="45.1838" lon="5.87387">
        <ele>686.27</ele>
        <time>2019-02-18T15:08:26.000Z</time>
      </trkpt>
      <trkpt lat="45.18379" lon="5.87387">
        <ele>687.38</ele>
        <time>2019-02-18T15:08:37.000Z</time>
      </trkpt>
      <trkpt lat="45.1838" lon="5.87387">
        <ele>689.39</ele>
        <time>2019-02-18T15:09:50.000Z</time>
      </trkpt>
      <trkpt lat="45.18379" lon="5.87386">
        <ele>688.36</ele>
        <time>2019-02-18T15:10:15.000Z</time>
      </trkpt>
      <trkpt lat="45.18378" lon="5.87386">
        <ele>688.1</ele>
        <time>2019-02-18T15:10:40.000Z</time>
      </trkpt>
    </trkseg>
  </trk>
</gpx>